<?xml version="1.0" encoding="UTF-8" standalone="no" ?>
<gpx xmlns="http://www.topografix.com/GPX/1/1" xmlns:xsi="http://www.w3.org/2001/XMLSchema-instance" xsi:schemaLocation="http://www.topografix.com/GPX/1/1 http://www.topografix.com/GPX/1/1/gpx.xsd" version="1.1" creator="VisuGPX - https://www.visugpx.com">
  <metadata>
    <name>CCFM 19</name>
    <desc><![CDATA[CCFM Rando 19]]></desc>
  </metadata>
  <trk>
    <name><![CDATA[CCFM 019]]></name>
    <trkseg>
      <trkpt lat="50.62236" lon="5.45983">
        <ele>182</ele>
        <time>2016-10-09T15:44:38Z</time>
      </trkpt>
      <trkpt lat="50.62234" lon="5.4599">
        <ele>182</ele>
        <time>2016-10-09T15:46:38Z</time>
      </trkpt>
      <trkpt lat="50.62239" lon="5.45987">
        <ele>182</ele>
        <time>2016-10-09T15:48:38Z</time>
      </trkpt>
      <trkpt lat="50.62454" lon="5.4588">
        <ele>178</ele>
        <time>2016-10-09T15:50:38Z</time>
      </trkpt>
      <trkpt lat="50.62473" lon="5.45866">
        <ele>178</ele>
        <time>2016-10-09T15:52:38Z</time>
      </trkpt>
      <trkpt lat="50.62501" lon="5.45831">
        <ele>179</ele>
        <time>2016-10-09T15:54:38Z</time>
      </trkpt>
      <trkpt lat="50.62484" lon="5.45802">
        <ele>180</ele>
        <time>2016-10-09T15:56:38Z</time>
      </trkpt>
      <trkpt lat="50.62468" lon="5.45792">
        <ele>181</ele>
        <time>2016-10-09T15:58:38Z</time>
      </trkpt>
      <trkpt lat="50.62426" lon="5.45741">
        <ele>183</ele>
        <time>2016-10-09T16:00:38Z</time>
      </trkpt>
      <trkpt lat="50.62399" lon="5.45698">
        <ele>184</ele>
        <time>2016-10-09T16:02:38Z</time>
      </trkpt>
      <trkpt lat="50.62363" lon="5.45629">
        <ele>184</ele>
        <time>2016-10-09T16:04:38Z</time>
      </trkpt>
      <trkpt lat="50.62333" lon="5.45584">
        <ele>185</ele>
        <time>2016-10-09T16:06:38Z</time>
      </trkpt>
      <trkpt lat="50.62336" lon="5.45563">
        <ele>185</ele>
        <time>2016-10-09T16:08:38Z</time>
      </trkpt>
      <trkpt lat="50.6232" lon="5.45027">
        <ele>187</ele>
        <time>2016-10-09T16:10:38Z</time>
      </trkpt>
      <trkpt lat="50.62321" lon="5.4495">
        <ele>188</ele>
        <time>2016-10-09T16:12:38Z</time>
      </trkpt>
      <trkpt lat="50.6233" lon="5.44835">
        <ele>188</ele>
        <time>2016-10-09T16:14:38Z</time>
      </trkpt>
      <trkpt lat="50.62355" lon="5.44609">
        <ele>188</ele>
        <time>2016-10-09T16:16:38Z</time>
      </trkpt>
      <trkpt lat="50.62356" lon="5.44528">
        <ele>187</ele>
        <time>2016-10-09T16:18:38Z</time>
      </trkpt>
      <trkpt lat="50.6235" lon="5.44426">
        <ele>187</ele>
        <time>2016-10-09T16:20:38Z</time>
      </trkpt>
      <trkpt lat="50.62342" lon="5.44356">
        <ele>186</ele>
        <time>2016-10-09T16:22:38Z</time>
      </trkpt>
      <trkpt lat="50.62315" lon="5.44223">
        <ele>186</ele>
        <time>2016-10-09T16:24:38Z</time>
      </trkpt>
      <trkpt lat="50.62306" lon="5.44192">
        <ele>186</ele>
        <time>2016-10-09T16:26:38Z</time>
      </trkpt>
      <trkpt lat="50.623" lon="5.44189">
        <ele>186</ele>
        <time>2016-10-09T16:28:38Z</time>
      </trkpt>
      <trkpt lat="50.62306" lon="5.44129">
        <ele>185</ele>
        <time>2016-10-09T16:30:38Z</time>
      </trkpt>
      <trkpt lat="50.62358" lon="5.4403">
        <ele>185</ele>
        <time>2016-10-09T16:32:38Z</time>
      </trkpt>
      <trkpt lat="50.62372" lon="5.43994">
        <ele>185</ele>
        <time>2016-10-09T16:34:38Z</time>
      </trkpt>
      <trkpt lat="50.62371" lon="5.43972">
        <ele>185</ele>
        <time>2016-10-09T16:36:38Z</time>
      </trkpt>
      <trkpt lat="50.62335" lon="5.43795">
        <ele>183</ele>
        <time>2016-10-09T16:38:38Z</time>
      </trkpt>
      <trkpt lat="50.62317" lon="5.4374">
        <ele>184</ele>
        <time>2016-10-09T16:40:38Z</time>
      </trkpt>
      <trkpt lat="50.62239" lon="5.43538">
        <ele>188</ele>
        <time>2016-10-09T16:42:38Z</time>
      </trkpt>
      <trkpt lat="50.62232" lon="5.43499">
        <ele>189</ele>
        <time>2016-10-09T16:44:38Z</time>
      </trkpt>
      <trkpt lat="50.62233" lon="5.43484">
        <ele>190</ele>
        <time>2016-10-09T16:46:38Z</time>
      </trkpt>
      <trkpt lat="50.62227" lon="5.4347">
        <ele>190</ele>
        <time>2016-10-09T16:48:38Z</time>
      </trkpt>
      <trkpt lat="50.62214" lon="5.43465">
        <ele>190</ele>
        <time>2016-10-09T16:50:38Z</time>
      </trkpt>
      <trkpt lat="50.62202" lon="5.43449">
        <ele>190</ele>
        <time>2016-10-09T16:52:38Z</time>
      </trkpt>
      <trkpt lat="50.62156" lon="5.43321">
        <ele>192</ele>
        <time>2016-10-09T16:54:38Z</time>
      </trkpt>
      <trkpt lat="50.62146" lon="5.43301">
        <ele>192</ele>
        <time>2016-10-09T16:56:38Z</time>
      </trkpt>
      <trkpt lat="50.62039" lon="5.43186">
        <ele>190</ele>
        <time>2016-10-09T16:58:38Z</time>
      </trkpt>
      <trkpt lat="50.61983" lon="5.43153">
        <ele>190</ele>
        <time>2016-10-09T17:00:38Z</time>
      </trkpt>
      <trkpt lat="50.61967" lon="5.43138">
        <ele>189</ele>
        <time>2016-10-09T17:02:38Z</time>
      </trkpt>
      <trkpt lat="50.61848" lon="5.42972">
        <ele>190</ele>
        <time>2016-10-09T17:04:38Z</time>
      </trkpt>
      <trkpt lat="50.61795" lon="5.42916">
        <ele>187</ele>
        <time>2016-10-09T17:06:38Z</time>
      </trkpt>
      <trkpt lat="50.61772" lon="5.42882">
        <ele>186</ele>
        <time>2016-10-09T17:08:38Z</time>
      </trkpt>
      <trkpt lat="50.61766" lon="5.42862">
        <ele>185</ele>
        <time>2016-10-09T17:10:38Z</time>
      </trkpt>
      <trkpt lat="50.61768" lon="5.42841">
        <ele>185</ele>
        <time>2016-10-09T17:12:38Z</time>
      </trkpt>
      <trkpt lat="50.61796" lon="5.42771">
        <ele>187</ele>
        <time>2016-10-09T17:14:38Z</time>
      </trkpt>
      <trkpt lat="50.61813" lon="5.42684">
        <ele>187</ele>
        <time>2016-10-09T17:16:38Z</time>
      </trkpt>
      <trkpt lat="50.61817" lon="5.42634">
        <ele>188</ele>
        <time>2016-10-09T17:18:38Z</time>
      </trkpt>
      <trkpt lat="50.61808" lon="5.42585">
        <ele>189</ele>
        <time>2016-10-09T17:20:38Z</time>
      </trkpt>
      <trkpt lat="50.61854" lon="5.42599">
        <ele>190</ele>
        <time>2016-10-09T17:22:38Z</time>
      </trkpt>
      <trkpt lat="50.61881" lon="5.42605">
        <ele>191</ele>
        <time>2016-10-09T17:24:38Z</time>
      </trkpt>
      <trkpt lat="50.6195" lon="5.42597">
        <ele>193</ele>
        <time>2016-10-09T17:26:38Z</time>
      </trkpt>
      <trkpt lat="50.62001" lon="5.42597">
        <ele>193</ele>
        <time>2016-10-09T17:28:38Z</time>
      </trkpt>
      <trkpt lat="50.62154" lon="5.42634">
        <ele>190</ele>
        <time>2016-10-09T17:30:38Z</time>
      </trkpt>
      <trkpt lat="50.62173" lon="5.42623">
        <ele>189</ele>
        <time>2016-10-09T17:32:38Z</time>
      </trkpt>
      <trkpt lat="50.62197" lon="5.42569">
        <ele>188</ele>
        <time>2016-10-09T17:34:38Z</time>
      </trkpt>
      <trkpt lat="50.62215" lon="5.42548">
        <ele>188</ele>
        <time>2016-10-09T17:36:38Z</time>
      </trkpt>
      <trkpt lat="50.62254" lon="5.42555">
        <ele>187</ele>
        <time>2016-10-09T17:38:38Z</time>
      </trkpt>
      <trkpt lat="50.62286" lon="5.42543">
        <ele>187</ele>
        <time>2016-10-09T17:40:38Z</time>
      </trkpt>
      <trkpt lat="50.62294" lon="5.42548">
        <ele>187</ele>
        <time>2016-10-09T17:42:38Z</time>
      </trkpt>
      <trkpt lat="50.6231" lon="5.42543">
        <ele>187</ele>
        <time>2016-10-09T17:44:38Z</time>
      </trkpt>
      <trkpt lat="50.62316" lon="5.42528">
        <ele>187</ele>
        <time>2016-10-09T17:46:38Z</time>
      </trkpt>
      <trkpt lat="50.62314" lon="5.42508">
        <ele>186</ele>
        <time>2016-10-09T17:48:38Z</time>
      </trkpt>
      <trkpt lat="50.62318" lon="5.42494">
        <ele>186</ele>
        <time>2016-10-09T17:50:38Z</time>
      </trkpt>
      <trkpt lat="50.62352" lon="5.4242">
        <ele>183</ele>
        <time>2016-10-09T17:52:38Z</time>
      </trkpt>
      <trkpt lat="50.62363" lon="5.42405">
        <ele>183</ele>
        <time>2016-10-09T17:54:38Z</time>
      </trkpt>
      <trkpt lat="50.62376" lon="5.42402">
        <ele>183</ele>
        <time>2016-10-09T17:56:38Z</time>
      </trkpt>
      <trkpt lat="50.62383" lon="5.42391">
        <ele>182</ele>
        <time>2016-10-09T17:58:38Z</time>
      </trkpt>
      <trkpt lat="50.62382" lon="5.42369">
        <ele>182</ele>
        <time>2016-10-09T18:00:38Z</time>
      </trkpt>
      <trkpt lat="50.62378" lon="5.4236">
        <ele>182</ele>
        <time>2016-10-09T18:02:38Z</time>
      </trkpt>
      <trkpt lat="50.62384" lon="5.42324">
        <ele>181</ele>
        <time>2016-10-09T18:04:38Z</time>
      </trkpt>
      <trkpt lat="50.62423" lon="5.42195">
        <ele>179</ele>
        <time>2016-10-09T18:06:38Z</time>
      </trkpt>
      <trkpt lat="50.62437" lon="5.42165">
        <ele>179</ele>
        <time>2016-10-09T18:08:38Z</time>
      </trkpt>
      <trkpt lat="50.62459" lon="5.42144">
        <ele>179</ele>
        <time>2016-10-09T18:10:38Z</time>
      </trkpt>
      <trkpt lat="50.62496" lon="5.42128">
        <ele>180</ele>
        <time>2016-10-09T18:12:38Z</time>
      </trkpt>
      <trkpt lat="50.62535" lon="5.42098">
        <ele>180</ele>
        <time>2016-10-09T18:14:38Z</time>
      </trkpt>
      <trkpt lat="50.62637" lon="5.41969">
        <ele>176</ele>
        <time>2016-10-09T18:16:38Z</time>
      </trkpt>
      <trkpt lat="50.62667" lon="5.41943">
        <ele>175</ele>
        <time>2016-10-09T18:18:38Z</time>
      </trkpt>
      <trkpt lat="50.62683" lon="5.41932">
        <ele>175</ele>
        <time>2016-10-09T18:20:38Z</time>
      </trkpt>
      <trkpt lat="50.62673" lon="5.41906">
        <ele>175</ele>
        <time>2016-10-09T18:22:38Z</time>
      </trkpt>
      <trkpt lat="50.62662" lon="5.41813">
        <ele>174</ele>
        <time>2016-10-09T18:24:38Z</time>
      </trkpt>
      <trkpt lat="50.62574" lon="5.41552">
        <ele>169</ele>
        <time>2016-10-09T18:26:38Z</time>
      </trkpt>
      <trkpt lat="50.62636" lon="5.41455">
        <ele>167</ele>
        <time>2016-10-09T18:28:38Z</time>
      </trkpt>
      <trkpt lat="50.62686" lon="5.41439">
        <ele>165</ele>
        <time>2016-10-09T18:30:38Z</time>
      </trkpt>
      <trkpt lat="50.62846" lon="5.41491">
        <ele>167</ele>
        <time>2016-10-09T18:32:38Z</time>
      </trkpt>
      <trkpt lat="50.62878" lon="5.41502">
        <ele>166</ele>
        <time>2016-10-09T18:34:38Z</time>
      </trkpt>
      <trkpt lat="50.62923" lon="5.41478">
        <ele>164</ele>
        <time>2016-10-09T18:36:38Z</time>
      </trkpt>
      <trkpt lat="50.63028" lon="5.41419">
        <ele>164</ele>
        <time>2016-10-09T18:38:38Z</time>
      </trkpt>
      <trkpt lat="50.6296" lon="5.41175">
        <ele>158</ele>
        <time>2016-10-09T18:40:38Z</time>
      </trkpt>
      <trkpt lat="50.62866" lon="5.40861">
        <ele>155</ele>
        <time>2016-10-09T18:42:38Z</time>
      </trkpt>
      <trkpt lat="50.62767" lon="5.4059">
        <ele>157</ele>
        <time>2016-10-09T18:44:38Z</time>
      </trkpt>
      <trkpt lat="50.63285" lon="5.39918">
        <ele>163</ele>
        <time>2016-10-09T18:46:38Z</time>
      </trkpt>
      <trkpt lat="50.63509" lon="5.39626">
        <ele>166</ele>
        <time>2016-10-09T18:48:38Z</time>
      </trkpt>
      <trkpt lat="50.63514" lon="5.39631">
        <ele>166</ele>
        <time>2016-10-09T18:50:38Z</time>
      </trkpt>
      <trkpt lat="50.63523" lon="5.39629">
        <ele>166</ele>
        <time>2016-10-09T18:52:38Z</time>
      </trkpt>
      <trkpt lat="50.63527" lon="5.39612">
        <ele>166</ele>
        <time>2016-10-09T18:54:38Z</time>
      </trkpt>
      <trkpt lat="50.6352" lon="5.39601">
        <ele>166</ele>
        <time>2016-10-09T18:56:38Z</time>
      </trkpt>
      <trkpt lat="50.63449" lon="5.38678">
        <ele>162</ele>
        <time>2016-10-09T18:58:38Z</time>
      </trkpt>
      <trkpt lat="50.63299" lon="5.36854">
        <ele>175</ele>
        <time>2016-10-09T19:00:38Z</time>
      </trkpt>
      <trkpt lat="50.63293" lon="5.36664">
        <ele>178</ele>
        <time>2016-10-09T19:02:38Z</time>
      </trkpt>
      <trkpt lat="50.63293" lon="5.36337">
        <ele>179</ele>
        <time>2016-10-09T19:04:38Z</time>
      </trkpt>
      <trkpt lat="50.63262" lon="5.3605">
        <ele>178</ele>
        <time>2016-10-09T19:06:38Z</time>
      </trkpt>
      <trkpt lat="50.63262" lon="5.36026">
        <ele>178</ele>
        <time>2016-10-09T19:08:38Z</time>
      </trkpt>
      <trkpt lat="50.63318" lon="5.355">
        <ele>172</ele>
        <time>2016-10-09T19:10:38Z</time>
      </trkpt>
      <trkpt lat="50.63323" lon="5.35418">
        <ele>170</ele>
        <time>2016-10-09T19:12:38Z</time>
      </trkpt>
      <trkpt lat="50.6333" lon="5.35137">
        <ele>173</ele>
        <time>2016-10-09T19:14:38Z</time>
      </trkpt>
      <trkpt lat="50.63353" lon="5.34854">
        <ele>176</ele>
        <time>2016-10-09T19:16:38Z</time>
      </trkpt>
      <trkpt lat="50.63477" lon="5.34136">
        <ele>175</ele>
        <time>2016-10-09T19:18:38Z</time>
      </trkpt>
      <trkpt lat="50.63483" lon="5.33722">
        <ele>172</ele>
        <time>2016-10-09T19:20:38Z</time>
      </trkpt>
      <trkpt lat="50.63488" lon="5.33637">
        <ele>172</ele>
        <time>2016-10-09T19:22:38Z</time>
      </trkpt>
      <trkpt lat="50.63491" lon="5.33603">
        <ele>171</ele>
        <time>2016-10-09T19:24:38Z</time>
      </trkpt>
      <trkpt lat="50.63521" lon="5.33441">
        <ele>170</ele>
        <time>2016-10-09T19:26:38Z</time>
      </trkpt>
      <trkpt lat="50.63526" lon="5.33364">
        <ele>170</ele>
        <time>2016-10-09T19:28:38Z</time>
      </trkpt>
      <trkpt lat="50.6351" lon="5.33168">
        <ele>168</ele>
        <time>2016-10-09T19:30:38Z</time>
      </trkpt>
      <trkpt lat="50.63501" lon="5.33114">
        <ele>167</ele>
        <time>2016-10-09T19:32:38Z</time>
      </trkpt>
      <trkpt lat="50.63471" lon="5.32988">
        <ele>166</ele>
        <time>2016-10-09T19:34:38Z</time>
      </trkpt>
      <trkpt lat="50.63453" lon="5.32884">
        <ele>165</ele>
        <time>2016-10-09T19:36:38Z</time>
      </trkpt>
      <trkpt lat="50.63403" lon="5.3253">
        <ele>157</ele>
        <time>2016-10-09T19:38:38Z</time>
      </trkpt>
      <trkpt lat="50.63403" lon="5.32497">
        <ele>155</ele>
        <time>2016-10-09T19:40:38Z</time>
      </trkpt>
      <trkpt lat="50.63409" lon="5.32485">
        <ele>155</ele>
        <time>2016-10-09T19:42:38Z</time>
      </trkpt>
      <trkpt lat="50.63442" lon="5.32466">
        <ele>155</ele>
        <time>2016-10-09T19:44:38Z</time>
      </trkpt>
      <trkpt lat="50.63453" lon="5.32453">
        <ele>154</ele>
        <time>2016-10-09T19:46:38Z</time>
      </trkpt>
      <trkpt lat="50.63524" lon="5.32246">
        <ele>147</ele>
        <time>2016-10-09T19:48:38Z</time>
      </trkpt>
      <trkpt lat="50.63529" lon="5.32218">
        <ele>146</ele>
        <time>2016-10-09T19:50:38Z</time>
      </trkpt>
      <trkpt lat="50.63618" lon="5.3221">
        <ele>145</ele>
        <time>2016-10-09T19:52:38Z</time>
      </trkpt>
      <trkpt lat="50.63653" lon="5.32194">
        <ele>144</ele>
        <time>2016-10-09T19:54:38Z</time>
      </trkpt>
      <trkpt lat="50.63681" lon="5.3217">
        <ele>143</ele>
        <time>2016-10-09T19:56:38Z</time>
      </trkpt>
      <trkpt lat="50.6379" lon="5.32046">
        <ele>146</ele>
        <time>2016-10-09T19:58:38Z</time>
      </trkpt>
      <trkpt lat="50.63836" lon="5.32">
        <ele>146</ele>
        <time>2016-10-09T20:00:38Z</time>
      </trkpt>
      <trkpt lat="50.63833" lon="5.31998">
        <ele>146</ele>
        <time>2016-10-09T20:02:38Z</time>
      </trkpt>
      <trkpt lat="50.63836" lon="5.32">
        <ele>146</ele>
        <time>2016-10-09T20:04:38Z</time>
      </trkpt>
      <trkpt lat="50.63855" lon="5.31981">
        <ele>146</ele>
        <time>2016-10-09T20:06:38Z</time>
      </trkpt>
      <trkpt lat="50.63948" lon="5.31811">
        <ele>148</ele>
        <time>2016-10-09T20:08:38Z</time>
      </trkpt>
      <trkpt lat="50.63994" lon="5.31735">
        <ele>147</ele>
        <time>2016-10-09T20:10:38Z</time>
      </trkpt>
      <trkpt lat="50.64001" lon="5.31527">
        <ele>150</ele>
        <time>2016-10-09T20:12:38Z</time>
      </trkpt>
      <trkpt lat="50.64008" lon="5.31475">
        <ele>151</ele>
        <time>2016-10-09T20:14:38Z</time>
      </trkpt>
      <trkpt lat="50.64141" lon="5.30871">
        <ele>162</ele>
        <time>2016-10-09T20:16:38Z</time>
      </trkpt>
      <trkpt lat="50.64147" lon="5.30826">
        <ele>163</ele>
        <time>2016-10-09T20:18:38Z</time>
      </trkpt>
      <trkpt lat="50.6416" lon="5.30638">
        <ele>160</ele>
        <time>2016-10-09T20:20:38Z</time>
      </trkpt>
      <trkpt lat="50.64184" lon="5.3037">
        <ele>155</ele>
        <time>2016-10-09T20:22:38Z</time>
      </trkpt>
      <trkpt lat="50.64227" lon="5.30086">
        <ele>157</ele>
        <time>2016-10-09T20:24:38Z</time>
      </trkpt>
      <trkpt lat="50.6425" lon="5.29963">
        <ele>158</ele>
        <time>2016-10-09T20:26:38Z</time>
      </trkpt>
      <trkpt lat="50.64264" lon="5.29907">
        <ele>159</ele>
        <time>2016-10-09T20:28:38Z</time>
      </trkpt>
      <trkpt lat="50.64284" lon="5.29852">
        <ele>158</ele>
        <time>2016-10-09T20:30:38Z</time>
      </trkpt>
      <trkpt lat="50.64457" lon="5.29437">
        <ele>160</ele>
        <time>2016-10-09T20:32:38Z</time>
      </trkpt>
      <trkpt lat="50.64511" lon="5.29293">
        <ele>158</ele>
        <time>2016-10-09T20:34:38Z</time>
      </trkpt>
      <trkpt lat="50.64562" lon="5.29134">
        <ele>159</ele>
        <time>2016-10-09T20:36:38Z</time>
      </trkpt>
      <trkpt lat="50.64575" lon="5.29088">
        <ele>158</ele>
        <time>2016-10-09T20:38:38Z</time>
      </trkpt>
      <trkpt lat="50.6458" lon="5.29055">
        <ele>158</ele>
        <time>2016-10-09T20:40:38Z</time>
      </trkpt>
      <trkpt lat="50.64604" lon="5.28537">
        <ele>149</ele>
        <time>2016-10-09T20:42:38Z</time>
      </trkpt>
      <trkpt lat="50.64602" lon="5.28482">
        <ele>149</ele>
        <time>2016-10-09T20:44:38Z</time>
      </trkpt>
      <trkpt lat="50.64596" lon="5.28436">
        <ele>149</ele>
        <time>2016-10-09T20:46:38Z</time>
      </trkpt>
      <trkpt lat="50.64581" lon="5.28368">
        <ele>149</ele>
        <time>2016-10-09T20:48:38Z</time>
      </trkpt>
      <trkpt lat="50.64502" lon="5.2807">
        <ele>155</ele>
        <time>2016-10-09T20:50:38Z</time>
      </trkpt>
      <trkpt lat="50.6443" lon="5.27811">
        <ele>155</ele>
        <time>2016-10-09T20:52:38Z</time>
      </trkpt>
      <trkpt lat="50.64222" lon="5.27319">
        <ele>159</ele>
        <time>2016-10-09T20:54:38Z</time>
      </trkpt>
      <trkpt lat="50.64209" lon="5.27279">
        <ele>159</ele>
        <time>2016-10-09T20:56:38Z</time>
      </trkpt>
      <trkpt lat="50.64187" lon="5.27153">
        <ele>159</ele>
        <time>2016-10-09T20:58:38Z</time>
      </trkpt>
      <trkpt lat="50.6414" lon="5.26937">
        <ele>158</ele>
        <time>2016-10-09T21:00:38Z</time>
      </trkpt>
      <trkpt lat="50.6414" lon="5.26921">
        <ele>158</ele>
        <time>2016-10-09T21:02:38Z</time>
      </trkpt>
      <trkpt lat="50.64148" lon="5.26909">
        <ele>158</ele>
        <time>2016-10-09T21:04:38Z</time>
      </trkpt>
      <trkpt lat="50.64148" lon="5.26891">
        <ele>158</ele>
        <time>2016-10-09T21:06:38Z</time>
      </trkpt>
      <trkpt lat="50.64137" lon="5.26876">
        <ele>158</ele>
        <time>2016-10-09T21:08:38Z</time>
      </trkpt>
      <trkpt lat="50.64133" lon="5.26866">
        <ele>157</ele>
        <time>2016-10-09T21:10:38Z</time>
      </trkpt>
      <trkpt lat="50.64136" lon="5.26856">
        <ele>157</ele>
        <time>2016-10-09T21:12:38Z</time>
      </trkpt>
      <trkpt lat="50.6413" lon="5.26855">
        <ele>157</ele>
        <time>2016-10-09T21:14:38Z</time>
      </trkpt>
      <trkpt lat="50.64126" lon="5.26848">
        <ele>157</ele>
        <time>2016-10-09T21:16:38Z</time>
      </trkpt>
      <trkpt lat="50.64103" lon="5.26743">
        <ele>155</ele>
        <time>2016-10-09T21:18:38Z</time>
      </trkpt>
      <trkpt lat="50.64101" lon="5.26662">
        <ele>154</ele>
        <time>2016-10-09T21:20:38Z</time>
      </trkpt>
      <trkpt lat="50.64097" lon="5.26633">
        <ele>153</ele>
        <time>2016-10-09T21:22:38Z</time>
      </trkpt>
      <trkpt lat="50.64049" lon="5.26558">
        <ele>154</ele>
        <time>2016-10-09T21:24:38Z</time>
      </trkpt>
      <trkpt lat="50.6404" lon="5.26531">
        <ele>153</ele>
        <time>2016-10-09T21:26:38Z</time>
      </trkpt>
      <trkpt lat="50.6404" lon="5.26493">
        <ele>153</ele>
        <time>2016-10-09T21:28:38Z</time>
      </trkpt>
      <trkpt lat="50.64063" lon="5.2633">
        <ele>152</ele>
        <time>2016-10-09T21:30:38Z</time>
      </trkpt>
      <trkpt lat="50.64036" lon="5.26181">
        <ele>155</ele>
        <time>2016-10-09T21:32:38Z</time>
      </trkpt>
      <trkpt lat="50.64019" lon="5.25954">
        <ele>158</ele>
        <time>2016-10-09T21:34:38Z</time>
      </trkpt>
      <trkpt lat="50.64006" lon="5.25891">
        <ele>158</ele>
        <time>2016-10-09T21:36:38Z</time>
      </trkpt>
      <trkpt lat="50.63924" lon="5.25625">
        <ele>158</ele>
        <time>2016-10-09T21:38:38Z</time>
      </trkpt>
      <trkpt lat="50.63725" lon="5.24985">
        <ele>151</ele>
        <time>2016-10-09T21:40:38Z</time>
      </trkpt>
      <trkpt lat="50.6369" lon="5.24887">
        <ele>152</ele>
        <time>2016-10-09T21:42:38Z</time>
      </trkpt>
      <trkpt lat="50.63568" lon="5.24584">
        <ele>158</ele>
        <time>2016-10-09T21:44:38Z</time>
      </trkpt>
      <trkpt lat="50.63557" lon="5.24561">
        <ele>158</ele>
        <time>2016-10-09T21:46:38Z</time>
      </trkpt>
      <trkpt lat="50.635" lon="5.24474">
        <ele>158</ele>
        <time>2016-10-09T21:48:38Z</time>
      </trkpt>
      <trkpt lat="50.63408" lon="5.24368">
        <ele>160</ele>
        <time>2016-10-09T21:50:38Z</time>
      </trkpt>
      <trkpt lat="50.63375" lon="5.24344">
        <ele>160</ele>
        <time>2016-10-09T21:52:38Z</time>
      </trkpt>
      <trkpt lat="50.63329" lon="5.24335">
        <ele>161</ele>
        <time>2016-10-09T21:54:38Z</time>
      </trkpt>
      <trkpt lat="50.63323" lon="5.2433">
        <ele>161</ele>
        <time>2016-10-09T21:56:38Z</time>
      </trkpt>
      <trkpt lat="50.63303" lon="5.24289">
        <ele>162</ele>
        <time>2016-10-09T21:58:38Z</time>
      </trkpt>
      <trkpt lat="50.63291" lon="5.24242">
        <ele>162</ele>
        <time>2016-10-09T22:00:38Z</time>
      </trkpt>
      <trkpt lat="50.63289" lon="5.24233">
        <ele>162</ele>
        <time>2016-10-09T22:02:38Z</time>
      </trkpt>
      <trkpt lat="50.63325" lon="5.2418">
        <ele>161</ele>
        <time>2016-10-09T22:04:38Z</time>
      </trkpt>
      <trkpt lat="50.63342" lon="5.24148">
        <ele>161</ele>
        <time>2016-10-09T22:06:38Z</time>
      </trkpt>
      <trkpt lat="50.63572" lon="5.2341">
        <ele>159</ele>
        <time>2016-10-09T22:08:38Z</time>
      </trkpt>
      <trkpt lat="50.63634" lon="5.23276">
        <ele>156</ele>
        <time>2016-10-09T22:10:38Z</time>
      </trkpt>
      <trkpt lat="50.63693" lon="5.23159">
        <ele>154</ele>
        <time>2016-10-09T22:12:38Z</time>
      </trkpt>
      <trkpt lat="50.63569" lon="5.22915">
        <ele>160</ele>
        <time>2016-10-09T22:14:38Z</time>
      </trkpt>
      <trkpt lat="50.63566" lon="5.22891">
        <ele>160</ele>
        <time>2016-10-09T22:16:38Z</time>
      </trkpt>
      <trkpt lat="50.63586" lon="5.22864">
        <ele>160</ele>
        <time>2016-10-09T22:18:38Z</time>
      </trkpt>
      <trkpt lat="50.63784" lon="5.22709">
        <ele>161</ele>
        <time>2016-10-09T22:20:38Z</time>
      </trkpt>
      <trkpt lat="50.63798" lon="5.22676">
        <ele>162</ele>
        <time>2016-10-09T22:22:38Z</time>
      </trkpt>
      <trkpt lat="50.63808" lon="5.22607">
        <ele>160</ele>
        <time>2016-10-09T22:24:38Z</time>
      </trkpt>
      <trkpt lat="50.63821" lon="5.22508">
        <ele>158</ele>
        <time>2016-10-09T22:26:38Z</time>
      </trkpt>
      <trkpt lat="50.6382" lon="5.22492">
        <ele>157</ele>
        <time>2016-10-09T22:28:38Z</time>
      </trkpt>
      <trkpt lat="50.63788" lon="5.22377">
        <ele>156</ele>
        <time>2016-10-09T22:30:38Z</time>
      </trkpt>
      <trkpt lat="50.63779" lon="5.22329">
        <ele>155</ele>
        <time>2016-10-09T22:32:38Z</time>
      </trkpt>
      <trkpt lat="50.63804" lon="5.22296">
        <ele>154</ele>
        <time>2016-10-09T22:34:38Z</time>
      </trkpt>
      <trkpt lat="50.63844" lon="5.2223">
        <ele>153</ele>
        <time>2016-10-09T22:36:38Z</time>
      </trkpt>
      <trkpt lat="50.63897" lon="5.22131">
        <ele>153</ele>
        <time>2016-10-09T22:38:38Z</time>
      </trkpt>
      <trkpt lat="50.63967" lon="5.21983">
        <ele>155</ele>
        <time>2016-10-09T22:40:38Z</time>
      </trkpt>
      <trkpt lat="50.63978" lon="5.21951">
        <ele>155</ele>
        <time>2016-10-09T22:42:38Z</time>
      </trkpt>
      <trkpt lat="50.63989" lon="5.21872">
        <ele>156</ele>
        <time>2016-10-09T22:44:38Z</time>
      </trkpt>
      <trkpt lat="50.64023" lon="5.21752">
        <ele>156</ele>
        <time>2016-10-09T22:46:38Z</time>
      </trkpt>
      <trkpt lat="50.64016" lon="5.21728">
        <ele>157</ele>
        <time>2016-10-09T22:48:38Z</time>
      </trkpt>
      <trkpt lat="50.64014" lon="5.21707">
        <ele>157</ele>
        <time>2016-10-09T22:50:38Z</time>
      </trkpt>
      <trkpt lat="50.64014" lon="5.21651">
        <ele>157</ele>
        <time>2016-10-09T22:52:38Z</time>
      </trkpt>
      <trkpt lat="50.64023" lon="5.21555">
        <ele>157</ele>
        <time>2016-10-09T22:54:38Z</time>
      </trkpt>
      <trkpt lat="50.64088" lon="5.21274">
        <ele>155</ele>
        <time>2016-10-09T22:56:38Z</time>
      </trkpt>
      <trkpt lat="50.64116" lon="5.21102">
        <ele>155</ele>
        <time>2016-10-09T22:58:38Z</time>
      </trkpt>
      <trkpt lat="50.64127" lon="5.20999">
        <ele>154</ele>
        <time>2016-10-09T23:00:38Z</time>
      </trkpt>
      <trkpt lat="50.64125" lon="5.20987">
        <ele>154</ele>
        <time>2016-10-09T23:02:38Z</time>
      </trkpt>
      <trkpt lat="50.64166" lon="5.20645">
        <ele>149</ele>
        <time>2016-10-09T23:04:38Z</time>
      </trkpt>
      <trkpt lat="50.64177" lon="5.2049">
        <ele>148</ele>
        <time>2016-10-09T23:06:38Z</time>
      </trkpt>
      <trkpt lat="50.64173" lon="5.20425">
        <ele>149</ele>
        <time>2016-10-09T23:08:38Z</time>
      </trkpt>
      <trkpt lat="50.64209" lon="5.201">
        <ele>150</ele>
        <time>2016-10-09T23:10:38Z</time>
      </trkpt>
      <trkpt lat="50.64204" lon="5.19734">
        <ele>149</ele>
        <time>2016-10-09T23:12:38Z</time>
      </trkpt>
      <trkpt lat="50.64209" lon="5.1968">
        <ele>149</ele>
        <time>2016-10-09T23:14:38Z</time>
      </trkpt>
      <trkpt lat="50.64251" lon="5.19414">
        <ele>146</ele>
        <time>2016-10-09T23:16:38Z</time>
      </trkpt>
      <trkpt lat="50.64259" lon="5.19325">
        <ele>144</ele>
        <time>2016-10-09T23:18:38Z</time>
      </trkpt>
      <trkpt lat="50.64256" lon="5.19249">
        <ele>143</ele>
        <time>2016-10-09T23:20:38Z</time>
      </trkpt>
      <trkpt lat="50.64106" lon="5.18445">
        <ele>141</ele>
        <time>2016-10-09T23:22:38Z</time>
      </trkpt>
      <trkpt lat="50.64056" lon="5.17991">
        <ele>150</ele>
        <time>2016-10-09T23:24:38Z</time>
      </trkpt>
      <trkpt lat="50.6404" lon="5.17956">
        <ele>149</ele>
        <time>2016-10-09T23:26:38Z</time>
      </trkpt>
      <trkpt lat="50.6397" lon="5.17823">
        <ele>149</ele>
        <time>2016-10-09T23:28:38Z</time>
      </trkpt>
      <trkpt lat="50.63936" lon="5.1771">
        <ele>150</ele>
        <time>2016-10-09T23:30:38Z</time>
      </trkpt>
      <trkpt lat="50.63928" lon="5.17625">
        <ele>151</ele>
        <time>2016-10-09T23:32:38Z</time>
      </trkpt>
      <trkpt lat="50.63918" lon="5.17589">
        <ele>151</ele>
        <time>2016-10-09T23:34:38Z</time>
      </trkpt>
      <trkpt lat="50.639" lon="5.1755">
        <ele>151</ele>
        <time>2016-10-09T23:36:38Z</time>
      </trkpt>
      <trkpt lat="50.63893" lon="5.1752">
        <ele>152</ele>
        <time>2016-10-09T23:38:38Z</time>
      </trkpt>
      <trkpt lat="50.63907" lon="5.17467">
        <ele>150</ele>
        <time>2016-10-09T23:40:38Z</time>
      </trkpt>
      <trkpt lat="50.639" lon="5.1746">
        <ele>151</ele>
        <time>2016-10-09T23:42:38Z</time>
      </trkpt>
      <trkpt lat="50.63853" lon="5.17375">
        <ele>151</ele>
        <time>2016-10-09T23:44:38Z</time>
      </trkpt>
      <trkpt lat="50.6383" lon="5.17355">
        <ele>152</ele>
        <time>2016-10-09T23:46:38Z</time>
      </trkpt>
      <trkpt lat="50.63582" lon="5.17306">
        <ele>155</ele>
        <time>2016-10-09T23:48:38Z</time>
      </trkpt>
      <trkpt lat="50.63543" lon="5.17292">
        <ele>156</ele>
        <time>2016-10-09T23:50:38Z</time>
      </trkpt>
      <trkpt lat="50.63525" lon="5.1728">
        <ele>156</ele>
        <time>2016-10-09T23:52:38Z</time>
      </trkpt>
      <trkpt lat="50.63383" lon="5.171">
        <ele>156</ele>
        <time>2016-10-09T23:54:38Z</time>
      </trkpt>
      <trkpt lat="50.63313" lon="5.17022">
        <ele>159</ele>
        <time>2016-10-09T23:56:38Z</time>
      </trkpt>
      <trkpt lat="50.63289" lon="5.17003">
        <ele>160</ele>
        <time>2016-10-09T23:58:38Z</time>
      </trkpt>
      <trkpt lat="50.63246" lon="5.16984">
        <ele>161</ele>
        <time>2016-10-10T00:00:38Z</time>
      </trkpt>
      <trkpt lat="50.62986" lon="5.16919">
        <ele>161</ele>
        <time>2016-10-10T00:02:38Z</time>
      </trkpt>
      <trkpt lat="50.62817" lon="5.17295">
        <ele>150</ele>
        <time>2016-10-10T00:04:38Z</time>
      </trkpt>
      <trkpt lat="50.62797" lon="5.17218">
        <ele>150</ele>
        <time>2016-10-10T00:06:38Z</time>
      </trkpt>
      <trkpt lat="50.62748" lon="5.17044">
        <ele>148</ele>
        <time>2016-10-10T00:08:38Z</time>
      </trkpt>
      <trkpt lat="50.62654" lon="5.16771">
        <ele>146</ele>
        <time>2016-10-10T00:10:38Z</time>
      </trkpt>
      <trkpt lat="50.62626" lon="5.16706">
        <ele>144</ele>
        <time>2016-10-10T00:12:38Z</time>
      </trkpt>
      <trkpt lat="50.62478" lon="5.16418">
        <ele>129</ele>
        <time>2016-10-10T00:14:38Z</time>
      </trkpt>
      <trkpt lat="50.62463" lon="5.16366">
        <ele>128</ele>
        <time>2016-10-10T00:16:38Z</time>
      </trkpt>
      <trkpt lat="50.62455" lon="5.16352">
        <ele>127</ele>
        <time>2016-10-10T00:18:38Z</time>
      </trkpt>
      <trkpt lat="50.62454" lon="5.16341">
        <ele>127</ele>
        <time>2016-10-10T00:20:38Z</time>
      </trkpt>
      <trkpt lat="50.62447" lon="5.16334">
        <ele>126</ele>
        <time>2016-10-10T00:22:38Z</time>
      </trkpt>
      <trkpt lat="50.62449" lon="5.16317">
        <ele>126</ele>
        <time>2016-10-10T00:24:38Z</time>
      </trkpt>
      <trkpt lat="50.62449" lon="5.16286">
        <ele>127</ele>
        <time>2016-10-10T00:26:38Z</time>
      </trkpt>
      <trkpt lat="50.6243" lon="5.1618">
        <ele>125</ele>
        <time>2016-10-10T00:28:38Z</time>
      </trkpt>
      <trkpt lat="50.62359" lon="5.1598">
        <ele>124</ele>
        <time>2016-10-10T00:30:38Z</time>
      </trkpt>
      <trkpt lat="50.62329" lon="5.15882">
        <ele>123</ele>
        <time>2016-10-10T00:32:38Z</time>
      </trkpt>
      <trkpt lat="50.62321" lon="5.1583">
        <ele>124</ele>
        <time>2016-10-10T00:34:38Z</time>
      </trkpt>
      <trkpt lat="50.6232" lon="5.15681">
        <ele>124</ele>
        <time>2016-10-10T00:36:38Z</time>
      </trkpt>
      <trkpt lat="50.62308" lon="5.1569">
        <ele>123</ele>
        <time>2016-10-10T00:38:38Z</time>
      </trkpt>
      <trkpt lat="50.62211" lon="5.15757">
        <ele>117</ele>
        <time>2016-10-10T00:40:38Z</time>
      </trkpt>
      <trkpt lat="50.62064" lon="5.1581">
        <ele>114</ele>
        <time>2016-10-10T00:42:38Z</time>
      </trkpt>
      <trkpt lat="50.62027" lon="5.15818">
        <ele>116</ele>
        <time>2016-10-10T00:44:38Z</time>
      </trkpt>
      <trkpt lat="50.61977" lon="5.15816">
        <ele>118</ele>
        <time>2016-10-10T00:46:38Z</time>
      </trkpt>
      <trkpt lat="50.61944" lon="5.15784">
        <ele>119</ele>
        <time>2016-10-10T00:48:38Z</time>
      </trkpt>
      <trkpt lat="50.61927" lon="5.15757">
        <ele>119</ele>
        <time>2016-10-10T00:50:38Z</time>
      </trkpt>
      <trkpt lat="50.61899" lon="5.15703">
        <ele>121</ele>
        <time>2016-10-10T00:52:38Z</time>
      </trkpt>
      <trkpt lat="50.61849" lon="5.15578">
        <ele>125</ele>
        <time>2016-10-10T00:54:38Z</time>
      </trkpt>
      <trkpt lat="50.61859" lon="5.15484">
        <ele>125</ele>
        <time>2016-10-10T00:56:38Z</time>
      </trkpt>
      <trkpt lat="50.61871" lon="5.15407">
        <ele>125</ele>
        <time>2016-10-10T00:58:38Z</time>
      </trkpt>
      <trkpt lat="50.61911" lon="5.15235">
        <ele>123</ele>
        <time>2016-10-10T01:00:38Z</time>
      </trkpt>
      <trkpt lat="50.6204" lon="5.14873">
        <ele>121</ele>
        <time>2016-10-10T01:02:38Z</time>
      </trkpt>
      <trkpt lat="50.62122" lon="5.14551">
        <ele>120</ele>
        <time>2016-10-10T01:04:38Z</time>
      </trkpt>
      <trkpt lat="50.62047" lon="5.14523">
        <ele>122</ele>
        <time>2016-10-10T01:06:38Z</time>
      </trkpt>
      <trkpt lat="50.61915" lon="5.14481">
        <ele>125</ele>
        <time>2016-10-10T01:08:38Z</time>
      </trkpt>
      <trkpt lat="50.61902" lon="5.1447">
        <ele>126</ele>
        <time>2016-10-10T01:10:38Z</time>
      </trkpt>
      <trkpt lat="50.6169" lon="5.14169">
        <ele>132</ele>
        <time>2016-10-10T01:12:38Z</time>
      </trkpt>
      <trkpt lat="50.61648" lon="5.14117">
        <ele>132</ele>
        <time>2016-10-10T01:14:38Z</time>
      </trkpt>
      <trkpt lat="50.61584" lon="5.14057">
        <ele>132</ele>
        <time>2016-10-10T01:16:38Z</time>
      </trkpt>
      <trkpt lat="50.61511" lon="5.14008">
        <ele>135</ele>
        <time>2016-10-10T01:18:38Z</time>
      </trkpt>
      <trkpt lat="50.6145" lon="5.13977">
        <ele>136</ele>
        <time>2016-10-10T01:20:38Z</time>
      </trkpt>
      <trkpt lat="50.61379" lon="5.13965">
        <ele>137</ele>
        <time>2016-10-10T01:22:38Z</time>
      </trkpt>
      <trkpt lat="50.61294" lon="5.13968">
        <ele>139</ele>
        <time>2016-10-10T01:24:38Z</time>
      </trkpt>
      <trkpt lat="50.60705" lon="5.14044">
        <ele>158</ele>
        <time>2016-10-10T01:26:38Z</time>
      </trkpt>
      <trkpt lat="50.60668" lon="5.14046">
        <ele>159</ele>
        <time>2016-10-10T01:28:38Z</time>
      </trkpt>
      <trkpt lat="50.60651" lon="5.14042">
        <ele>159</ele>
        <time>2016-10-10T01:30:38Z</time>
      </trkpt>
      <trkpt lat="50.60623" lon="5.14022">
        <ele>160</ele>
        <time>2016-10-10T01:32:38Z</time>
      </trkpt>
      <trkpt lat="50.60321" lon="5.13761">
        <ele>162</ele>
        <time>2016-10-10T01:34:38Z</time>
      </trkpt>
      <trkpt lat="50.60157" lon="5.13555">
        <ele>164</ele>
        <time>2016-10-10T01:36:38Z</time>
      </trkpt>
      <trkpt lat="50.59846" lon="5.13149">
        <ele>173</ele>
        <time>2016-10-10T01:38:38Z</time>
      </trkpt>
      <trkpt lat="50.59831" lon="5.13145">
        <ele>173</ele>
        <time>2016-10-10T01:40:38Z</time>
      </trkpt>
      <trkpt lat="50.59789" lon="5.13164">
        <ele>174</ele>
        <time>2016-10-10T01:42:38Z</time>
      </trkpt>
      <trkpt lat="50.59759" lon="5.13125">
        <ele>174</ele>
        <time>2016-10-10T01:44:38Z</time>
      </trkpt>
      <trkpt lat="50.59719" lon="5.13057">
        <ele>174</ele>
        <time>2016-10-10T01:46:38Z</time>
      </trkpt>
      <trkpt lat="50.59599" lon="5.12812">
        <ele>173</ele>
        <time>2016-10-10T01:48:38Z</time>
      </trkpt>
      <trkpt lat="50.59569" lon="5.12765">
        <ele>172</ele>
        <time>2016-10-10T01:50:38Z</time>
      </trkpt>
      <trkpt lat="50.59557" lon="5.12752">
        <ele>172</ele>
        <time>2016-10-10T01:52:38Z</time>
      </trkpt>
      <trkpt lat="50.59476" lon="5.12698">
        <ele>170</ele>
        <time>2016-10-10T01:54:38Z</time>
      </trkpt>
      <trkpt lat="50.59431" lon="5.12655">
        <ele>170</ele>
        <time>2016-10-10T01:56:38Z</time>
      </trkpt>
      <trkpt lat="50.59394" lon="5.12612">
        <ele>169</ele>
        <time>2016-10-10T01:58:38Z</time>
      </trkpt>
      <trkpt lat="50.59291" lon="5.12422">
        <ele>168</ele>
        <time>2016-10-10T02:00:38Z</time>
      </trkpt>
      <trkpt lat="50.5926" lon="5.12388">
        <ele>167</ele>
        <time>2016-10-10T02:02:38Z</time>
      </trkpt>
      <trkpt lat="50.59193" lon="5.12342">
        <ele>167</ele>
        <time>2016-10-10T02:04:38Z</time>
      </trkpt>
      <trkpt lat="50.59171" lon="5.1232">
        <ele>167</ele>
        <time>2016-10-10T02:06:38Z</time>
      </trkpt>
      <trkpt lat="50.59121" lon="5.12254">
        <ele>166</ele>
        <time>2016-10-10T02:08:38Z</time>
      </trkpt>
      <trkpt lat="50.59069" lon="5.12121">
        <ele>165</ele>
        <time>2016-10-10T02:10:38Z</time>
      </trkpt>
      <trkpt lat="50.58975" lon="5.11965">
        <ele>159</ele>
        <time>2016-10-10T02:12:38Z</time>
      </trkpt>
      <trkpt lat="50.58974" lon="5.11859">
        <ele>157</ele>
        <time>2016-10-10T02:14:38Z</time>
      </trkpt>
      <trkpt lat="50.58964" lon="5.11835">
        <ele>157</ele>
        <time>2016-10-10T02:16:38Z</time>
      </trkpt>
      <trkpt lat="50.58914" lon="5.11765">
        <ele>154</ele>
        <time>2016-10-10T02:18:38Z</time>
      </trkpt>
      <trkpt lat="50.58883" lon="5.11734">
        <ele>152</ele>
        <time>2016-10-10T02:20:38Z</time>
      </trkpt>
      <trkpt lat="50.58855" lon="5.11716">
        <ele>151</ele>
        <time>2016-10-10T02:22:38Z</time>
      </trkpt>
      <trkpt lat="50.58767" lon="5.11674">
        <ele>149</ele>
        <time>2016-10-10T02:24:38Z</time>
      </trkpt>
      <trkpt lat="50.58733" lon="5.11663">
        <ele>149</ele>
        <time>2016-10-10T02:26:38Z</time>
      </trkpt>
      <trkpt lat="50.58674" lon="5.11655">
        <ele>148</ele>
        <time>2016-10-10T02:28:38Z</time>
      </trkpt>
      <trkpt lat="50.58645" lon="5.11661">
        <ele>146</ele>
        <time>2016-10-10T02:30:38Z</time>
      </trkpt>
      <trkpt lat="50.5859" lon="5.11694">
        <ele>140</ele>
        <time>2016-10-10T02:32:38Z</time>
      </trkpt>
      <trkpt lat="50.58554" lon="5.11694">
        <ele>140</ele>
        <time>2016-10-10T02:34:38Z</time>
      </trkpt>
      <trkpt lat="50.58471" lon="5.11607">
        <ele>144</ele>
        <time>2016-10-10T02:36:38Z</time>
      </trkpt>
      <trkpt lat="50.58442" lon="5.11573">
        <ele>145</ele>
        <time>2016-10-10T02:38:38Z</time>
      </trkpt>
      <trkpt lat="50.58374" lon="5.11531">
        <ele>141</ele>
        <time>2016-10-10T02:40:38Z</time>
      </trkpt>
      <trkpt lat="50.58287" lon="5.1151">
        <ele>135</ele>
        <time>2016-10-10T02:42:38Z</time>
      </trkpt>
      <trkpt lat="50.58152" lon="5.11512">
        <ele>126</ele>
        <time>2016-10-10T02:44:38Z</time>
      </trkpt>
      <trkpt lat="50.5807" lon="5.11773">
        <ele>137</ele>
        <time>2016-10-10T02:46:38Z</time>
      </trkpt>
      <trkpt lat="50.58017" lon="5.11973">
        <ele>135</ele>
        <time>2016-10-10T02:48:38Z</time>
      </trkpt>
      <trkpt lat="50.58018" lon="5.12042">
        <ele>136</ele>
        <time>2016-10-10T02:50:38Z</time>
      </trkpt>
      <trkpt lat="50.58089" lon="5.12916">
        <ele>120</ele>
        <time>2016-10-10T02:52:38Z</time>
      </trkpt>
      <trkpt lat="50.58082" lon="5.13057">
        <ele>128</ele>
        <time>2016-10-10T02:54:38Z</time>
      </trkpt>
      <trkpt lat="50.5807" lon="5.1309">
        <ele>131</ele>
        <time>2016-10-10T02:56:38Z</time>
      </trkpt>
      <trkpt lat="50.5798" lon="5.13188">
        <ele>125</ele>
        <time>2016-10-10T02:58:38Z</time>
      </trkpt>
      <trkpt lat="50.57919" lon="5.13239">
        <ele>119</ele>
        <time>2016-10-10T03:00:38Z</time>
      </trkpt>
      <trkpt lat="50.57907" lon="5.13261">
        <ele>119</ele>
        <time>2016-10-10T03:02:38Z</time>
      </trkpt>
      <trkpt lat="50.57882" lon="5.13322">
        <ele>119</ele>
        <time>2016-10-10T03:04:38Z</time>
      </trkpt>
      <trkpt lat="50.57863" lon="5.13385">
        <ele>120</ele>
        <time>2016-10-10T03:06:38Z</time>
      </trkpt>
      <trkpt lat="50.57788" lon="5.13694">
        <ele>126</ele>
        <time>2016-10-10T03:08:38Z</time>
      </trkpt>
      <trkpt lat="50.57729" lon="5.13887">
        <ele>123</ele>
        <time>2016-10-10T03:10:38Z</time>
      </trkpt>
      <trkpt lat="50.57697" lon="5.14063">
        <ele>123</ele>
        <time>2016-10-10T03:12:38Z</time>
      </trkpt>
      <trkpt lat="50.57679" lon="5.14115">
        <ele>121</ele>
        <time>2016-10-10T03:14:38Z</time>
      </trkpt>
      <trkpt lat="50.57643" lon="5.14188">
        <ele>118</ele>
        <time>2016-10-10T03:16:38Z</time>
      </trkpt>
      <trkpt lat="50.57627" lon="5.14231">
        <ele>118</ele>
        <time>2016-10-10T03:18:38Z</time>
      </trkpt>
      <trkpt lat="50.57609" lon="5.14362">
        <ele>118</ele>
        <time>2016-10-10T03:20:38Z</time>
      </trkpt>
      <trkpt lat="50.57582" lon="5.14492">
        <ele>114</ele>
        <time>2016-10-10T03:22:38Z</time>
      </trkpt>
      <trkpt lat="50.57571" lon="5.14573">
        <ele>113</ele>
        <time>2016-10-10T03:24:38Z</time>
      </trkpt>
      <trkpt lat="50.57564" lon="5.14777">
        <ele>111</ele>
        <time>2016-10-10T03:26:38Z</time>
      </trkpt>
      <trkpt lat="50.57556" lon="5.14848">
        <ele>111</ele>
        <time>2016-10-10T03:28:38Z</time>
      </trkpt>
      <trkpt lat="50.57523" lon="5.14967">
        <ele>112</ele>
        <time>2016-10-10T03:30:38Z</time>
      </trkpt>
      <trkpt lat="50.57509" lon="5.15091">
        <ele>113</ele>
        <time>2016-10-10T03:32:38Z</time>
      </trkpt>
      <trkpt lat="50.57471" lon="5.15208">
        <ele>114</ele>
        <time>2016-10-10T03:34:38Z</time>
      </trkpt>
      <trkpt lat="50.57451" lon="5.15255">
        <ele>115</ele>
        <time>2016-10-10T03:36:38Z</time>
      </trkpt>
      <trkpt lat="50.57408" lon="5.15339">
        <ele>114</ele>
        <time>2016-10-10T03:38:38Z</time>
      </trkpt>
      <trkpt lat="50.57362" lon="5.15455">
        <ele>115</ele>
        <time>2016-10-10T03:40:38Z</time>
      </trkpt>
      <trkpt lat="50.57348" lon="5.15511">
        <ele>113</ele>
        <time>2016-10-10T03:42:38Z</time>
      </trkpt>
      <trkpt lat="50.57319" lon="5.15665">
        <ele>119</ele>
        <time>2016-10-10T03:44:38Z</time>
      </trkpt>
      <trkpt lat="50.5725" lon="5.15917">
        <ele>109</ele>
        <time>2016-10-10T03:46:38Z</time>
      </trkpt>
      <trkpt lat="50.57239" lon="5.1598">
        <ele>110</ele>
        <time>2016-10-10T03:48:38Z</time>
      </trkpt>
      <trkpt lat="50.57236" lon="5.1602">
        <ele>110</ele>
        <time>2016-10-10T03:50:38Z</time>
      </trkpt>
      <trkpt lat="50.57246" lon="5.16132">
        <ele>108</ele>
        <time>2016-10-10T03:52:38Z</time>
      </trkpt>
      <trkpt lat="50.57246" lon="5.16156">
        <ele>108</ele>
        <time>2016-10-10T03:54:38Z</time>
      </trkpt>
      <trkpt lat="50.57237" lon="5.16196">
        <ele>108</ele>
        <time>2016-10-10T03:56:38Z</time>
      </trkpt>
      <trkpt lat="50.5717" lon="5.16301">
        <ele>104</ele>
        <time>2016-10-10T03:58:38Z</time>
      </trkpt>
      <trkpt lat="50.57151" lon="5.16328">
        <ele>104</ele>
        <time>2016-10-10T04:00:38Z</time>
      </trkpt>
      <trkpt lat="50.57139" lon="5.16338">
        <ele>105</ele>
        <time>2016-10-10T04:02:38Z</time>
      </trkpt>
      <trkpt lat="50.57125" lon="5.1634">
        <ele>107</ele>
        <time>2016-10-10T04:04:38Z</time>
      </trkpt>
      <trkpt lat="50.5704" lon="5.16318">
        <ele>118</ele>
        <time>2016-10-10T04:06:38Z</time>
      </trkpt>
      <trkpt lat="50.57012" lon="5.16319">
        <ele>120</ele>
        <time>2016-10-10T04:08:38Z</time>
      </trkpt>
      <trkpt lat="50.56971" lon="5.16335">
        <ele>119</ele>
        <time>2016-10-10T04:10:38Z</time>
      </trkpt>
      <trkpt lat="50.56812" lon="5.16472">
        <ele>103</ele>
        <time>2016-10-10T04:12:38Z</time>
      </trkpt>
      <trkpt lat="50.56763" lon="5.16517">
        <ele>101</ele>
        <time>2016-10-10T04:14:38Z</time>
      </trkpt>
      <trkpt lat="50.56728" lon="5.16556">
        <ele>102</ele>
        <time>2016-10-10T04:16:38Z</time>
      </trkpt>
      <trkpt lat="50.56725" lon="5.16656">
        <ele>98</ele>
        <time>2016-10-10T04:18:38Z</time>
      </trkpt>
      <trkpt lat="50.56727" lon="5.16675">
        <ele>98</ele>
        <time>2016-10-10T04:20:38Z</time>
      </trkpt>
      <trkpt lat="50.56763" lon="5.16779">
        <ele>102</ele>
        <time>2016-10-10T04:22:38Z</time>
      </trkpt>
      <trkpt lat="50.56773" lon="5.16818">
        <ele>104</ele>
        <time>2016-10-10T04:24:38Z</time>
      </trkpt>
      <trkpt lat="50.56772" lon="5.16829">
        <ele>104</ele>
        <time>2016-10-10T04:26:38Z</time>
      </trkpt>
      <trkpt lat="50.56726" lon="5.16861">
        <ele>105</ele>
        <time>2016-10-10T04:28:38Z</time>
      </trkpt>
      <trkpt lat="50.56699" lon="5.16888">
        <ele>106</ele>
        <time>2016-10-10T04:30:38Z</time>
      </trkpt>
      <trkpt lat="50.56668" lon="5.16937">
        <ele>107</ele>
        <time>2016-10-10T04:32:38Z</time>
      </trkpt>
      <trkpt lat="50.56644" lon="5.16996">
        <ele>110</ele>
        <time>2016-10-10T04:34:38Z</time>
      </trkpt>
      <trkpt lat="50.56627" lon="5.17059">
        <ele>111</ele>
        <time>2016-10-10T04:36:38Z</time>
      </trkpt>
      <trkpt lat="50.56617" lon="5.17134">
        <ele>113</ele>
        <time>2016-10-10T04:38:38Z</time>
      </trkpt>
      <trkpt lat="50.56609" lon="5.17249">
        <ele>115</ele>
        <time>2016-10-10T04:40:38Z</time>
      </trkpt>
      <trkpt lat="50.56599" lon="5.17335">
        <ele>115</ele>
        <time>2016-10-10T04:42:38Z</time>
      </trkpt>
      <trkpt lat="50.56567" lon="5.17501">
        <ele>106</ele>
        <time>2016-10-10T04:44:38Z</time>
      </trkpt>
      <trkpt lat="50.5652" lon="5.17617">
        <ele>103</ele>
        <time>2016-10-10T04:46:38Z</time>
      </trkpt>
      <trkpt lat="50.56466" lon="5.17726">
        <ele>105</ele>
        <time>2016-10-10T04:48:38Z</time>
      </trkpt>
      <trkpt lat="50.56448" lon="5.17752">
        <ele>106</ele>
        <time>2016-10-10T04:50:38Z</time>
      </trkpt>
      <trkpt lat="50.56423" lon="5.17765">
        <ele>103</ele>
        <time>2016-10-10T04:52:38Z</time>
      </trkpt>
      <trkpt lat="50.56351" lon="5.17752">
        <ele>100</ele>
        <time>2016-10-10T04:54:38Z</time>
      </trkpt>
      <trkpt lat="50.56333" lon="5.17735">
        <ele>99</ele>
        <time>2016-10-10T04:56:38Z</time>
      </trkpt>
      <trkpt lat="50.56275" lon="5.17661">
        <ele>97</ele>
        <time>2016-10-10T04:58:38Z</time>
      </trkpt>
      <trkpt lat="50.56252" lon="5.17612">
        <ele>97</ele>
        <time>2016-10-10T05:00:38Z</time>
      </trkpt>
      <trkpt lat="50.56239" lon="5.17594">
        <ele>98</ele>
        <time>2016-10-10T05:02:38Z</time>
      </trkpt>
      <trkpt lat="50.5621" lon="5.1757">
        <ele>100</ele>
        <time>2016-10-10T05:04:38Z</time>
      </trkpt>
      <trkpt lat="50.5618" lon="5.17534">
        <ele>101</ele>
        <time>2016-10-10T05:06:38Z</time>
      </trkpt>
      <trkpt lat="50.56148" lon="5.17518">
        <ele>101</ele>
        <time>2016-10-10T05:08:38Z</time>
      </trkpt>
      <trkpt lat="50.56134" lon="5.17521">
        <ele>101</ele>
        <time>2016-10-10T05:10:38Z</time>
      </trkpt>
      <trkpt lat="50.56115" lon="5.17534">
        <ele>101</ele>
        <time>2016-10-10T05:12:38Z</time>
      </trkpt>
      <trkpt lat="50.56089" lon="5.17579">
        <ele>105</ele>
        <time>2016-10-10T05:14:38Z</time>
      </trkpt>
      <trkpt lat="50.5607" lon="5.17595">
        <ele>105</ele>
        <time>2016-10-10T05:16:38Z</time>
      </trkpt>
      <trkpt lat="50.55951" lon="5.17662">
        <ele>98</ele>
        <time>2016-10-10T05:18:38Z</time>
      </trkpt>
      <trkpt lat="50.55909" lon="5.17659">
        <ele>96</ele>
        <time>2016-10-10T05:20:38Z</time>
      </trkpt>
      <trkpt lat="50.55871" lon="5.17639">
        <ele>99</ele>
        <time>2016-10-10T05:22:38Z</time>
      </trkpt>
      <trkpt lat="50.55846" lon="5.17632">
        <ele>100</ele>
        <time>2016-10-10T05:24:38Z</time>
      </trkpt>
      <trkpt lat="50.5582" lon="5.17633">
        <ele>101</ele>
        <time>2016-10-10T05:26:38Z</time>
      </trkpt>
      <trkpt lat="50.55768" lon="5.17651">
        <ele>99</ele>
        <time>2016-10-10T05:28:38Z</time>
      </trkpt>
      <trkpt lat="50.55743" lon="5.17681">
        <ele>98</ele>
        <time>2016-10-10T05:30:38Z</time>
      </trkpt>
      <trkpt lat="50.5572" lon="5.17752">
        <ele>97</ele>
        <time>2016-10-10T05:32:38Z</time>
      </trkpt>
      <trkpt lat="50.55712" lon="5.17763">
        <ele>97</ele>
        <time>2016-10-10T05:34:38Z</time>
      </trkpt>
      <trkpt lat="50.55623" lon="5.17847">
        <ele>96</ele>
        <time>2016-10-10T05:36:38Z</time>
      </trkpt>
      <trkpt lat="50.55526" lon="5.17917">
        <ele>100</ele>
        <time>2016-10-10T05:38:38Z</time>
      </trkpt>
      <trkpt lat="50.55498" lon="5.17942">
        <ele>97</ele>
        <time>2016-10-10T05:40:38Z</time>
      </trkpt>
      <trkpt lat="50.55491" lon="5.17958">
        <ele>96</ele>
        <time>2016-10-10T05:42:38Z</time>
      </trkpt>
      <trkpt lat="50.55487" lon="5.17993">
        <ele>94</ele>
        <time>2016-10-10T05:44:38Z</time>
      </trkpt>
      <trkpt lat="50.55385" lon="5.18156">
        <ele>95</ele>
        <time>2016-10-10T05:46:38Z</time>
      </trkpt>
      <trkpt lat="50.55347" lon="5.182">
        <ele>92</ele>
        <time>2016-10-10T05:48:38Z</time>
      </trkpt>
      <trkpt lat="50.5522" lon="5.18308">
        <ele>88</ele>
        <time>2016-10-10T05:50:38Z</time>
      </trkpt>
      <trkpt lat="50.55179" lon="5.18349">
        <ele>85</ele>
        <time>2016-10-10T05:52:38Z</time>
      </trkpt>
      <trkpt lat="50.55156" lon="5.1838">
        <ele>85</ele>
        <time>2016-10-10T05:54:38Z</time>
      </trkpt>
      <trkpt lat="50.55131" lon="5.18425">
        <ele>85</ele>
        <time>2016-10-10T05:56:38Z</time>
      </trkpt>
      <trkpt lat="50.55125" lon="5.18429">
        <ele>85</ele>
        <time>2016-10-10T05:58:38Z</time>
      </trkpt>
      <trkpt lat="50.55125" lon="5.18452">
        <ele>85</ele>
        <time>2016-10-10T06:00:38Z</time>
      </trkpt>
      <trkpt lat="50.55108" lon="5.18585">
        <ele>87</ele>
        <time>2016-10-10T06:02:38Z</time>
      </trkpt>
      <trkpt lat="50.55084" lon="5.18731">
        <ele>88</ele>
        <time>2016-10-10T06:04:38Z</time>
      </trkpt>
      <trkpt lat="50.55044" lon="5.18841">
        <ele>87</ele>
        <time>2016-10-10T06:06:38Z</time>
      </trkpt>
      <trkpt lat="50.5504" lon="5.18884">
        <ele>89</ele>
        <time>2016-10-10T06:08:38Z</time>
      </trkpt>
      <trkpt lat="50.55003" lon="5.18957">
        <ele>89</ele>
        <time>2016-10-10T06:10:38Z</time>
      </trkpt>
      <trkpt lat="50.54983" lon="5.19008">
        <ele>90</ele>
        <time>2016-10-10T06:12:38Z</time>
      </trkpt>
      <trkpt lat="50.54951" lon="5.19131">
        <ele>89</ele>
        <time>2016-10-10T06:14:38Z</time>
      </trkpt>
      <trkpt lat="50.54947" lon="5.19158">
        <ele>89</ele>
        <time>2016-10-10T06:16:38Z</time>
      </trkpt>
      <trkpt lat="50.54948" lon="5.19173">
        <ele>89</ele>
        <time>2016-10-10T06:18:38Z</time>
      </trkpt>
      <trkpt lat="50.54971" lon="5.19285">
        <ele>88</ele>
        <time>2016-10-10T06:20:38Z</time>
      </trkpt>
      <trkpt lat="50.54983" lon="5.19321">
        <ele>87</ele>
        <time>2016-10-10T06:22:38Z</time>
      </trkpt>
      <trkpt lat="50.55121" lon="5.19594">
        <ele>86</ele>
        <time>2016-10-10T06:24:38Z</time>
      </trkpt>
      <trkpt lat="50.55253" lon="5.19864">
        <ele>85</ele>
        <time>2016-10-10T06:26:38Z</time>
      </trkpt>
      <trkpt lat="50.55261" lon="5.19887">
        <ele>86</ele>
        <time>2016-10-10T06:28:38Z</time>
      </trkpt>
      <trkpt lat="50.55338" lon="5.20231">
        <ele>86</ele>
        <time>2016-10-10T06:30:38Z</time>
      </trkpt>
      <trkpt lat="50.55453" lon="5.20649">
        <ele>87</ele>
        <time>2016-10-10T06:32:38Z</time>
      </trkpt>
      <trkpt lat="50.55459" lon="5.20693">
        <ele>88</ele>
        <time>2016-10-10T06:34:38Z</time>
      </trkpt>
      <trkpt lat="50.55458" lon="5.2079">
        <ele>87</ele>
        <time>2016-10-10T06:36:38Z</time>
      </trkpt>
      <trkpt lat="50.55451" lon="5.20923">
        <ele>89</ele>
        <time>2016-10-10T06:38:38Z</time>
      </trkpt>
      <trkpt lat="50.55434" lon="5.20985">
        <ele>87</ele>
        <time>2016-10-10T06:40:38Z</time>
      </trkpt>
      <trkpt lat="50.55411" lon="5.21029">
        <ele>86</ele>
        <time>2016-10-10T06:42:38Z</time>
      </trkpt>
      <trkpt lat="50.55154" lon="5.21478">
        <ele>86</ele>
        <time>2016-10-10T06:44:38Z</time>
      </trkpt>
      <trkpt lat="50.55044" lon="5.21638">
        <ele>85</ele>
        <time>2016-10-10T06:46:38Z</time>
      </trkpt>
      <trkpt lat="50.54965" lon="5.21744">
        <ele>84</ele>
        <time>2016-10-10T06:48:38Z</time>
      </trkpt>
      <trkpt lat="50.54959" lon="5.21774">
        <ele>85</ele>
        <time>2016-10-10T06:50:38Z</time>
      </trkpt>
      <trkpt lat="50.54956" lon="5.21878">
        <ele>86</ele>
        <time>2016-10-10T06:52:38Z</time>
      </trkpt>
      <trkpt lat="50.54946" lon="5.21928">
        <ele>86</ele>
        <time>2016-10-10T06:54:38Z</time>
      </trkpt>
      <trkpt lat="50.54813" lon="5.2224">
        <ele>82</ele>
        <time>2016-10-10T06:56:38Z</time>
      </trkpt>
      <trkpt lat="50.5481" lon="5.22255">
        <ele>82</ele>
        <time>2016-10-10T06:58:38Z</time>
      </trkpt>
      <trkpt lat="50.54637" lon="5.22218">
        <ele>76</ele>
        <time>2016-10-10T07:00:38Z</time>
      </trkpt>
      <trkpt lat="50.53799" lon="5.22043">
        <ele>72</ele>
        <time>2016-10-10T07:02:38Z</time>
      </trkpt>
      <trkpt lat="50.53461" lon="5.21965">
        <ele>72</ele>
        <time>2016-10-10T07:04:38Z</time>
      </trkpt>
      <trkpt lat="50.53338" lon="5.21947">
        <ele>72</ele>
        <time>2016-10-10T07:06:38Z</time>
      </trkpt>
      <trkpt lat="50.53166" lon="5.21909">
        <ele>77</ele>
        <time>2016-10-10T07:08:38Z</time>
      </trkpt>
      <trkpt lat="50.53115" lon="5.21913">
        <ele>80</ele>
        <time>2016-10-10T07:10:38Z</time>
      </trkpt>
      <trkpt lat="50.53075" lon="5.21943">
        <ele>82</ele>
        <time>2016-10-10T07:12:38Z</time>
      </trkpt>
      <trkpt lat="50.52977" lon="5.22038">
        <ele>80</ele>
        <time>2016-10-10T07:14:38Z</time>
      </trkpt>
      <trkpt lat="50.52855" lon="5.22222">
        <ele>85</ele>
        <time>2016-10-10T07:16:38Z</time>
      </trkpt>
      <trkpt lat="50.52723" lon="5.22363">
        <ele>82</ele>
        <time>2016-10-10T07:18:38Z</time>
      </trkpt>
      <trkpt lat="50.52697" lon="5.22382">
        <ele>83</ele>
        <time>2016-10-10T07:20:38Z</time>
      </trkpt>
      <trkpt lat="50.52635" lon="5.22406">
        <ele>81</ele>
        <time>2016-10-10T07:22:38Z</time>
      </trkpt>
      <trkpt lat="50.52619" lon="5.22418">
        <ele>80</ele>
        <time>2016-10-10T07:24:38Z</time>
      </trkpt>
      <trkpt lat="50.52612" lon="5.22442">
        <ele>81</ele>
        <time>2016-10-10T07:26:38Z</time>
      </trkpt>
      <trkpt lat="50.52563" lon="5.22822">
        <ele>90</ele>
        <time>2016-10-10T07:28:38Z</time>
      </trkpt>
      <trkpt lat="50.52552" lon="5.22962">
        <ele>92</ele>
        <time>2016-10-10T07:30:38Z</time>
      </trkpt>
      <trkpt lat="50.52544" lon="5.22987">
        <ele>93</ele>
        <time>2016-10-10T07:32:38Z</time>
      </trkpt>
      <trkpt lat="50.52409" lon="5.23203">
        <ele>94</ele>
        <time>2016-10-10T07:34:38Z</time>
      </trkpt>
      <trkpt lat="50.52335" lon="5.23283">
        <ele>90</ele>
        <time>2016-10-10T07:36:38Z</time>
      </trkpt>
      <trkpt lat="50.52148" lon="5.23444">
        <ele>80</ele>
        <time>2016-10-10T07:38:38Z</time>
      </trkpt>
      <trkpt lat="50.52161" lon="5.23485">
        <ele>78</ele>
        <time>2016-10-10T07:40:38Z</time>
      </trkpt>
      <trkpt lat="50.5221" lon="5.23537">
        <ele>78</ele>
        <time>2016-10-10T07:42:38Z</time>
      </trkpt>
      <trkpt lat="50.52288" lon="5.23589">
        <ele>74</ele>
        <time>2016-10-10T07:44:38Z</time>
      </trkpt>
      <trkpt lat="50.52345" lon="5.2365">
        <ele>72</ele>
        <time>2016-10-10T07:46:38Z</time>
      </trkpt>
      <trkpt lat="50.52343" lon="5.23668">
        <ele>72</ele>
        <time>2016-10-10T07:48:38Z</time>
      </trkpt>
      <trkpt lat="50.52348" lon="5.2368">
        <ele>72</ele>
        <time>2016-10-10T07:50:38Z</time>
      </trkpt>
      <trkpt lat="50.5236" lon="5.23684">
        <ele>72</ele>
        <time>2016-10-10T07:52:38Z</time>
      </trkpt>
      <trkpt lat="50.52369" lon="5.23677">
        <ele>72</ele>
        <time>2016-10-10T07:54:38Z</time>
      </trkpt>
      <trkpt lat="50.52683" lon="5.23898">
        <ele>71</ele>
        <time>2016-10-10T07:56:38Z</time>
      </trkpt>
      <trkpt lat="50.53035" lon="5.24032">
        <ele>77</ele>
        <time>2016-10-10T07:58:38Z</time>
      </trkpt>
      <trkpt lat="50.53056" lon="5.24051">
        <ele>80</ele>
        <time>2016-10-10T08:00:38Z</time>
      </trkpt>
      <trkpt lat="50.53116" lon="5.24137">
        <ele>83</ele>
        <time>2016-10-10T08:02:38Z</time>
      </trkpt>
      <trkpt lat="50.53126" lon="5.24143">
        <ele>84</ele>
        <time>2016-10-10T08:04:38Z</time>
      </trkpt>
      <trkpt lat="50.53147" lon="5.2418">
        <ele>85</ele>
        <time>2016-10-10T08:06:38Z</time>
      </trkpt>
      <trkpt lat="50.53155" lon="5.24206">
        <ele>85</ele>
        <time>2016-10-10T08:08:38Z</time>
      </trkpt>
      <trkpt lat="50.53154" lon="5.24233">
        <ele>83</ele>
        <time>2016-10-10T08:10:38Z</time>
      </trkpt>
      <trkpt lat="50.53148" lon="5.24256">
        <ele>80</ele>
        <time>2016-10-10T08:12:38Z</time>
      </trkpt>
      <trkpt lat="50.532" lon="5.24311">
        <ele>80</ele>
        <time>2016-10-10T08:14:38Z</time>
      </trkpt>
      <trkpt lat="50.53294" lon="5.24451">
        <ele>81</ele>
        <time>2016-10-10T08:16:38Z</time>
      </trkpt>
      <trkpt lat="50.53331" lon="5.24522">
        <ele>79</ele>
        <time>2016-10-10T08:18:38Z</time>
      </trkpt>
      <trkpt lat="50.5336" lon="5.24588">
        <ele>86</ele>
        <time>2016-10-10T08:20:38Z</time>
      </trkpt>
      <trkpt lat="50.5344" lon="5.24802">
        <ele>82</ele>
        <time>2016-10-10T08:22:38Z</time>
      </trkpt>
      <trkpt lat="50.53626" lon="5.25443">
        <ele>79</ele>
        <time>2016-10-10T08:24:38Z</time>
      </trkpt>
      <trkpt lat="50.53674" lon="5.25619">
        <ele>74</ele>
        <time>2016-10-10T08:26:38Z</time>
      </trkpt>
      <trkpt lat="50.53766" lon="5.26097">
        <ele>74</ele>
        <time>2016-10-10T08:28:38Z</time>
      </trkpt>
      <trkpt lat="50.53775" lon="5.26164">
        <ele>76</ele>
        <time>2016-10-10T08:30:38Z</time>
      </trkpt>
      <trkpt lat="50.53775" lon="5.26274">
        <ele>79</ele>
        <time>2016-10-10T08:32:38Z</time>
      </trkpt>
      <trkpt lat="50.53771" lon="5.26329">
        <ele>80</ele>
        <time>2016-10-10T08:34:38Z</time>
      </trkpt>
      <trkpt lat="50.53746" lon="5.26528">
        <ele>76</ele>
        <time>2016-10-10T08:36:38Z</time>
      </trkpt>
      <trkpt lat="50.53751" lon="5.26661">
        <ele>73</ele>
        <time>2016-10-10T08:38:38Z</time>
      </trkpt>
      <trkpt lat="50.53756" lon="5.26705">
        <ele>73</ele>
        <time>2016-10-10T08:40:38Z</time>
      </trkpt>
      <trkpt lat="50.5379" lon="5.26805">
        <ele>80</ele>
        <time>2016-10-10T08:42:38Z</time>
      </trkpt>
      <trkpt lat="50.53795" lon="5.26831">
        <ele>81</ele>
        <time>2016-10-10T08:44:38Z</time>
      </trkpt>
      <trkpt lat="50.53801" lon="5.26895">
        <ele>83</ele>
        <time>2016-10-10T08:46:38Z</time>
      </trkpt>
      <trkpt lat="50.53798" lon="5.27059">
        <ele>81</ele>
        <time>2016-10-10T08:48:38Z</time>
      </trkpt>
      <trkpt lat="50.53804" lon="5.27103">
        <ele>82</ele>
        <time>2016-10-10T08:50:38Z</time>
      </trkpt>
      <trkpt lat="50.53827" lon="5.2721">
        <ele>84</ele>
        <time>2016-10-10T08:52:38Z</time>
      </trkpt>
      <trkpt lat="50.53835" lon="5.27281">
        <ele>82</ele>
        <time>2016-10-10T08:54:38Z</time>
      </trkpt>
      <trkpt lat="50.53836" lon="5.27329">
        <ele>79</ele>
        <time>2016-10-10T08:56:38Z</time>
      </trkpt>
      <trkpt lat="50.53823" lon="5.27487">
        <ele>76</ele>
        <time>2016-10-10T08:58:38Z</time>
      </trkpt>
      <trkpt lat="50.53819" lon="5.27624">
        <ele>74</ele>
        <time>2016-10-10T09:00:38Z</time>
      </trkpt>
      <trkpt lat="50.53829" lon="5.27725">
        <ele>72</ele>
        <time>2016-10-10T09:02:38Z</time>
      </trkpt>
      <trkpt lat="50.53961" lon="5.28741">
        <ele>72</ele>
        <time>2016-10-10T09:04:38Z</time>
      </trkpt>
      <trkpt lat="50.54" lon="5.29065">
        <ele>72</ele>
        <time>2016-10-10T09:06:38Z</time>
      </trkpt>
      <trkpt lat="50.54063" lon="5.29524">
        <ele>70</ele>
        <time>2016-10-10T09:08:38Z</time>
      </trkpt>
      <trkpt lat="50.5417" lon="5.30347">
        <ele>69</ele>
        <time>2016-10-10T09:10:38Z</time>
      </trkpt>
      <trkpt lat="50.54203" lon="5.30468">
        <ele>68</ele>
        <time>2016-10-10T09:12:38Z</time>
      </trkpt>
      <trkpt lat="50.54264" lon="5.30622">
        <ele>69</ele>
        <time>2016-10-10T09:14:38Z</time>
      </trkpt>
      <trkpt lat="50.54343" lon="5.30794">
        <ele>69</ele>
        <time>2016-10-10T09:16:38Z</time>
      </trkpt>
      <trkpt lat="50.54558" lon="5.31291">
        <ele>72</ele>
        <time>2016-10-10T09:18:38Z</time>
      </trkpt>
      <trkpt lat="50.54639" lon="5.31464">
        <ele>73</ele>
        <time>2016-10-10T09:20:38Z</time>
      </trkpt>
      <trkpt lat="50.54677" lon="5.31558">
        <ele>73</ele>
        <time>2016-10-10T09:22:38Z</time>
      </trkpt>
      <trkpt lat="50.54741" lon="5.31698">
        <ele>73</ele>
        <time>2016-10-10T09:24:38Z</time>
      </trkpt>
      <trkpt lat="50.54743" lon="5.31711">
        <ele>73</ele>
        <time>2016-10-10T09:26:38Z</time>
      </trkpt>
      <trkpt lat="50.5475" lon="5.31716">
        <ele>73</ele>
        <time>2016-10-10T09:28:38Z</time>
      </trkpt>
      <trkpt lat="50.54779" lon="5.31791">
        <ele>74</ele>
        <time>2016-10-10T09:30:38Z</time>
      </trkpt>
      <trkpt lat="50.54834" lon="5.31898">
        <ele>74</ele>
        <time>2016-10-10T09:32:38Z</time>
      </trkpt>
      <trkpt lat="50.5483" lon="5.31907">
        <ele>74</ele>
        <time>2016-10-10T09:34:38Z</time>
      </trkpt>
      <trkpt lat="50.54831" lon="5.31915">
        <ele>74</ele>
        <time>2016-10-10T09:36:38Z</time>
      </trkpt>
      <trkpt lat="50.54836" lon="5.31921">
        <ele>74</ele>
        <time>2016-10-10T09:38:38Z</time>
      </trkpt>
      <trkpt lat="50.54844" lon="5.31917">
        <ele>75</ele>
        <time>2016-10-10T09:40:38Z</time>
      </trkpt>
      <trkpt lat="50.5488" lon="5.31973">
        <ele>74</ele>
        <time>2016-10-10T09:42:38Z</time>
      </trkpt>
      <trkpt lat="50.54914" lon="5.32042">
        <ele>72</ele>
        <time>2016-10-10T09:44:38Z</time>
      </trkpt>
      <trkpt lat="50.55007" lon="5.32201">
        <ele>72</ele>
        <time>2016-10-10T09:46:38Z</time>
      </trkpt>
      <trkpt lat="50.55001" lon="5.32209">
        <ele>71</ele>
        <time>2016-10-10T09:48:38Z</time>
      </trkpt>
      <trkpt lat="50.54852" lon="5.32438">
        <ele>68</ele>
        <time>2016-10-10T09:50:38Z</time>
      </trkpt>
      <trkpt lat="50.54827" lon="5.32471">
        <ele>69</ele>
        <time>2016-10-10T09:52:38Z</time>
      </trkpt>
      <trkpt lat="50.54801" lon="5.3249">
        <ele>69</ele>
        <time>2016-10-10T09:54:38Z</time>
      </trkpt>
      <trkpt lat="50.54648" lon="5.3255">
        <ele>67</ele>
        <time>2016-10-10T09:56:38Z</time>
      </trkpt>
      <trkpt lat="50.54602" lon="5.32586">
        <ele>67</ele>
        <time>2016-10-10T09:58:38Z</time>
      </trkpt>
      <trkpt lat="50.54584" lon="5.32644">
        <ele>67</ele>
        <time>2016-10-10T10:00:38Z</time>
      </trkpt>
      <trkpt lat="50.54578" lon="5.32654">
        <ele>67</ele>
        <time>2016-10-10T10:02:38Z</time>
      </trkpt>
      <trkpt lat="50.5456" lon="5.32917">
        <ele>68</ele>
        <time>2016-10-10T10:04:38Z</time>
      </trkpt>
      <trkpt lat="50.54554" lon="5.32967">
        <ele>68</ele>
        <time>2016-10-10T10:06:38Z</time>
      </trkpt>
      <trkpt lat="50.54544" lon="5.32988">
        <ele>68</ele>
        <time>2016-10-10T10:08:38Z</time>
      </trkpt>
      <trkpt lat="50.54532" lon="5.3299">
        <ele>68</ele>
        <time>2016-10-10T10:10:38Z</time>
      </trkpt>
      <trkpt lat="50.54525" lon="5.33003">
        <ele>68</ele>
        <time>2016-10-10T10:12:38Z</time>
      </trkpt>
      <trkpt lat="50.54527" lon="5.33025">
        <ele>68</ele>
        <time>2016-10-10T10:14:38Z</time>
      </trkpt>
      <trkpt lat="50.54519" lon="5.3305">
        <ele>68</ele>
        <time>2016-10-10T10:16:38Z</time>
      </trkpt>
      <trkpt lat="50.54339" lon="5.3332">
        <ele>65</ele>
        <time>2016-10-10T10:18:38Z</time>
      </trkpt>
      <trkpt lat="50.5432" lon="5.33343">
        <ele>65</ele>
        <time>2016-10-10T10:20:38Z</time>
      </trkpt>
      <trkpt lat="50.54303" lon="5.3338">
        <ele>67</ele>
        <time>2016-10-10T10:22:38Z</time>
      </trkpt>
      <trkpt lat="50.54302" lon="5.33409">
        <ele>68</ele>
        <time>2016-10-10T10:24:38Z</time>
      </trkpt>
      <trkpt lat="50.54312" lon="5.33439">
        <ele>68</ele>
        <time>2016-10-10T10:26:38Z</time>
      </trkpt>
      <trkpt lat="50.54345" lon="5.33484">
        <ele>68</ele>
        <time>2016-10-10T10:28:38Z</time>
      </trkpt>
      <trkpt lat="50.54349" lon="5.33496">
        <ele>68</ele>
        <time>2016-10-10T10:30:38Z</time>
      </trkpt>
      <trkpt lat="50.54348" lon="5.33516">
        <ele>69</ele>
        <time>2016-10-10T10:32:38Z</time>
      </trkpt>
      <trkpt lat="50.54339" lon="5.33536">
        <ele>70</ele>
        <time>2016-10-10T10:34:38Z</time>
      </trkpt>
      <trkpt lat="50.54322" lon="5.33558">
        <ele>72</ele>
        <time>2016-10-10T10:36:38Z</time>
      </trkpt>
      <trkpt lat="50.5434" lon="5.33648">
        <ele>75</ele>
        <time>2016-10-10T10:38:38Z</time>
      </trkpt>
      <trkpt lat="50.54422" lon="5.33769">
        <ele>79</ele>
        <time>2016-10-10T10:40:38Z</time>
      </trkpt>
      <trkpt lat="50.54437" lon="5.33802">
        <ele>81</ele>
        <time>2016-10-10T10:42:38Z</time>
      </trkpt>
      <trkpt lat="50.54505" lon="5.34034">
        <ele>86</ele>
        <time>2016-10-10T10:44:38Z</time>
      </trkpt>
      <trkpt lat="50.542" lon="5.3431">
        <ele>94</ele>
        <time>2016-10-10T10:46:38Z</time>
      </trkpt>
      <trkpt lat="50.54176" lon="5.34323">
        <ele>96</ele>
        <time>2016-10-10T10:48:38Z</time>
      </trkpt>
      <trkpt lat="50.54091" lon="5.34348">
        <ele>104</ele>
        <time>2016-10-10T10:50:38Z</time>
      </trkpt>
      <trkpt lat="50.54043" lon="5.34372">
        <ele>103</ele>
        <time>2016-10-10T10:52:38Z</time>
      </trkpt>
      <trkpt lat="50.54033" lon="5.34384">
        <ele>104</ele>
        <time>2016-10-10T10:54:38Z</time>
      </trkpt>
      <trkpt lat="50.53987" lon="5.34525">
        <ele>108</ele>
        <time>2016-10-10T10:56:38Z</time>
      </trkpt>
      <trkpt lat="50.5392" lon="5.34712">
        <ele>112</ele>
        <time>2016-10-10T10:58:38Z</time>
      </trkpt>
      <trkpt lat="50.53897" lon="5.34767">
        <ele>117</ele>
        <time>2016-10-10T11:00:38Z</time>
      </trkpt>
      <trkpt lat="50.5382" lon="5.3492">
        <ele>113</ele>
        <time>2016-10-10T11:02:38Z</time>
      </trkpt>
      <trkpt lat="50.5378" lon="5.34982">
        <ele>112</ele>
        <time>2016-10-10T11:04:38Z</time>
      </trkpt>
      <trkpt lat="50.53727" lon="5.35051">
        <ele>111</ele>
        <time>2016-10-10T11:06:38Z</time>
      </trkpt>
      <trkpt lat="50.53668" lon="5.35352">
        <ele>120</ele>
        <time>2016-10-10T11:08:38Z</time>
      </trkpt>
      <trkpt lat="50.53646" lon="5.35439">
        <ele>125</ele>
        <time>2016-10-10T11:10:38Z</time>
      </trkpt>
      <trkpt lat="50.53604" lon="5.35564">
        <ele>126</ele>
        <time>2016-10-10T11:12:38Z</time>
      </trkpt>
      <trkpt lat="50.5356" lon="5.35668">
        <ele>129</ele>
        <time>2016-10-10T11:14:38Z</time>
      </trkpt>
      <trkpt lat="50.53553" lon="5.35693">
        <ele>130</ele>
        <time>2016-10-10T11:16:38Z</time>
      </trkpt>
      <trkpt lat="50.53553" lon="5.35722">
        <ele>132</ele>
        <time>2016-10-10T11:18:38Z</time>
      </trkpt>
      <trkpt lat="50.53578" lon="5.3582">
        <ele>134</ele>
        <time>2016-10-10T11:20:38Z</time>
      </trkpt>
      <trkpt lat="50.53583" lon="5.35851">
        <ele>136</ele>
        <time>2016-10-10T11:22:38Z</time>
      </trkpt>
      <trkpt lat="50.53583" lon="5.35883">
        <ele>139</ele>
        <time>2016-10-10T11:24:38Z</time>
      </trkpt>
      <trkpt lat="50.5357" lon="5.35919">
        <ele>143</ele>
        <time>2016-10-10T11:26:38Z</time>
      </trkpt>
      <trkpt lat="50.53558" lon="5.35938">
        <ele>145</ele>
        <time>2016-10-10T11:28:38Z</time>
      </trkpt>
      <trkpt lat="50.53476" lon="5.36028">
        <ele>153</ele>
        <time>2016-10-10T11:30:38Z</time>
      </trkpt>
      <trkpt lat="50.53464" lon="5.36047">
        <ele>156</ele>
        <time>2016-10-10T11:32:38Z</time>
      </trkpt>
      <trkpt lat="50.53458" lon="5.36067">
        <ele>157</ele>
        <time>2016-10-10T11:34:38Z</time>
      </trkpt>
      <trkpt lat="50.53458" lon="5.36106">
        <ele>158</ele>
        <time>2016-10-10T11:36:38Z</time>
      </trkpt>
      <trkpt lat="50.53465" lon="5.3614">
        <ele>158</ele>
        <time>2016-10-10T11:38:38Z</time>
      </trkpt>
      <trkpt lat="50.53499" lon="5.36219">
        <ele>156</ele>
        <time>2016-10-10T11:40:38Z</time>
      </trkpt>
      <trkpt lat="50.53512" lon="5.36258">
        <ele>157</ele>
        <time>2016-10-10T11:42:38Z</time>
      </trkpt>
      <trkpt lat="50.53547" lon="5.36395">
        <ele>162</ele>
        <time>2016-10-10T11:44:38Z</time>
      </trkpt>
      <trkpt lat="50.53605" lon="5.36546">
        <ele>163</ele>
        <time>2016-10-10T11:46:38Z</time>
      </trkpt>
      <trkpt lat="50.53661" lon="5.36667">
        <ele>160</ele>
        <time>2016-10-10T11:48:38Z</time>
      </trkpt>
      <trkpt lat="50.5369" lon="5.36753">
        <ele>167</ele>
        <time>2016-10-10T11:50:38Z</time>
      </trkpt>
      <trkpt lat="50.53733" lon="5.36914">
        <ele>168</ele>
        <time>2016-10-10T11:52:38Z</time>
      </trkpt>
      <trkpt lat="50.5375" lon="5.36958">
        <ele>164</ele>
        <time>2016-10-10T11:54:38Z</time>
      </trkpt>
      <trkpt lat="50.53815" lon="5.37098">
        <ele>174</ele>
        <time>2016-10-10T11:56:38Z</time>
      </trkpt>
      <trkpt lat="50.53843" lon="5.37154">
        <ele>168</ele>
        <time>2016-10-10T11:58:38Z</time>
      </trkpt>
      <trkpt lat="50.53888" lon="5.37229">
        <ele>173</ele>
        <time>2016-10-10T12:00:38Z</time>
      </trkpt>
      <trkpt lat="50.53902" lon="5.37264">
        <ele>172</ele>
        <time>2016-10-10T12:02:38Z</time>
      </trkpt>
      <trkpt lat="50.5392" lon="5.37439">
        <ele>171</ele>
        <time>2016-10-10T12:04:38Z</time>
      </trkpt>
      <trkpt lat="50.53913" lon="5.37476">
        <ele>172</ele>
        <time>2016-10-10T12:06:38Z</time>
      </trkpt>
      <trkpt lat="50.53908" lon="5.37488">
        <ele>173</ele>
        <time>2016-10-10T12:08:38Z</time>
      </trkpt>
      <trkpt lat="50.53708" lon="5.37711">
        <ele>194</ele>
        <time>2016-10-10T12:10:38Z</time>
      </trkpt>
      <trkpt lat="50.53695" lon="5.37738">
        <ele>196</ele>
        <time>2016-10-10T12:12:38Z</time>
      </trkpt>
      <trkpt lat="50.5369" lon="5.37764">
        <ele>195</ele>
        <time>2016-10-10T12:14:38Z</time>
      </trkpt>
      <trkpt lat="50.53686" lon="5.37875">
        <ele>190</ele>
        <time>2016-10-10T12:16:38Z</time>
      </trkpt>
      <trkpt lat="50.53682" lon="5.37901">
        <ele>190</ele>
        <time>2016-10-10T12:18:38Z</time>
      </trkpt>
      <trkpt lat="50.53677" lon="5.37917">
        <ele>190</ele>
        <time>2016-10-10T12:20:38Z</time>
      </trkpt>
      <trkpt lat="50.53663" lon="5.37938">
        <ele>190</ele>
        <time>2016-10-10T12:22:38Z</time>
      </trkpt>
      <trkpt lat="50.53648" lon="5.37944">
        <ele>192</ele>
        <time>2016-10-10T12:24:38Z</time>
      </trkpt>
      <trkpt lat="50.53637" lon="5.37942">
        <ele>194</ele>
        <time>2016-10-10T12:26:38Z</time>
      </trkpt>
      <trkpt lat="50.53408" lon="5.3787">
        <ele>212</ele>
        <time>2016-10-10T12:28:38Z</time>
      </trkpt>
      <trkpt lat="50.53314" lon="5.37882">
        <ele>213</ele>
        <time>2016-10-10T12:30:38Z</time>
      </trkpt>
      <trkpt lat="50.53285" lon="5.37898">
        <ele>214</ele>
        <time>2016-10-10T12:32:38Z</time>
      </trkpt>
      <trkpt lat="50.53232" lon="5.37939">
        <ele>217</ele>
        <time>2016-10-10T12:34:38Z</time>
      </trkpt>
      <trkpt lat="50.53176" lon="5.37998">
        <ele>217</ele>
        <time>2016-10-10T12:36:38Z</time>
      </trkpt>
      <trkpt lat="50.53138" lon="5.38028">
        <ele>219</ele>
        <time>2016-10-10T12:38:38Z</time>
      </trkpt>
      <trkpt lat="50.53105" lon="5.38034">
        <ele>220</ele>
        <time>2016-10-10T12:40:38Z</time>
      </trkpt>
      <trkpt lat="50.52996" lon="5.38007">
        <ele>219</ele>
        <time>2016-10-10T12:42:38Z</time>
      </trkpt>
      <trkpt lat="50.52968" lon="5.38009">
        <ele>221</ele>
        <time>2016-10-10T12:44:38Z</time>
      </trkpt>
      <trkpt lat="50.52954" lon="5.38017">
        <ele>222</ele>
        <time>2016-10-10T12:46:38Z</time>
      </trkpt>
      <trkpt lat="50.52852" lon="5.38139">
        <ele>229</ele>
        <time>2016-10-10T12:48:38Z</time>
      </trkpt>
      <trkpt lat="50.52873" lon="5.38228">
        <ele>230</ele>
        <time>2016-10-10T12:50:38Z</time>
      </trkpt>
      <trkpt lat="50.5287" lon="5.38264">
        <ele>231</ele>
        <time>2016-10-10T12:52:38Z</time>
      </trkpt>
      <trkpt lat="50.52877" lon="5.3831">
        <ele>232</ele>
        <time>2016-10-10T12:54:38Z</time>
      </trkpt>
      <trkpt lat="50.53005" lon="5.38772">
        <ele>232</ele>
        <time>2016-10-10T12:56:38Z</time>
      </trkpt>
      <trkpt lat="50.53042" lon="5.39032">
        <ele>234</ele>
        <time>2016-10-10T12:58:38Z</time>
      </trkpt>
      <trkpt lat="50.53038" lon="5.39094">
        <ele>235</ele>
        <time>2016-10-10T13:00:38Z</time>
      </trkpt>
      <trkpt lat="50.52992" lon="5.39435">
        <ele>236</ele>
        <time>2016-10-10T13:02:38Z</time>
      </trkpt>
      <trkpt lat="50.52958" lon="5.39582">
        <ele>236</ele>
        <time>2016-10-10T13:04:38Z</time>
      </trkpt>
      <trkpt lat="50.52952" lon="5.39625">
        <ele>236</ele>
        <time>2016-10-10T13:06:38Z</time>
      </trkpt>
      <trkpt lat="50.5295" lon="5.39672">
        <ele>235</ele>
        <time>2016-10-10T13:08:38Z</time>
      </trkpt>
      <trkpt lat="50.52959" lon="5.39879">
        <ele>236</ele>
        <time>2016-10-10T13:10:38Z</time>
      </trkpt>
      <trkpt lat="50.52972" lon="5.39984">
        <ele>236</ele>
        <time>2016-10-10T13:12:38Z</time>
      </trkpt>
      <trkpt lat="50.52974" lon="5.40028">
        <ele>237</ele>
        <time>2016-10-10T13:14:38Z</time>
      </trkpt>
      <trkpt lat="50.52958" lon="5.40265">
        <ele>237</ele>
        <time>2016-10-10T13:16:38Z</time>
      </trkpt>
      <trkpt lat="50.5296" lon="5.40474">
        <ele>237</ele>
        <time>2016-10-10T13:18:38Z</time>
      </trkpt>
      <trkpt lat="50.53017" lon="5.40859">
        <ele>235</ele>
        <time>2016-10-10T13:20:38Z</time>
      </trkpt>
      <trkpt lat="50.53014" lon="5.40898">
        <ele>235</ele>
        <time>2016-10-10T13:22:38Z</time>
      </trkpt>
      <trkpt lat="50.52993" lon="5.4097">
        <ele>235</ele>
        <time>2016-10-10T13:24:38Z</time>
      </trkpt>
      <trkpt lat="50.52987" lon="5.41003">
        <ele>236</ele>
        <time>2016-10-10T13:26:38Z</time>
      </trkpt>
      <trkpt lat="50.52987" lon="5.41018">
        <ele>236</ele>
        <time>2016-10-10T13:28:38Z</time>
      </trkpt>
      <trkpt lat="50.53001" lon="5.41089">
        <ele>235</ele>
        <time>2016-10-10T13:30:38Z</time>
      </trkpt>
      <trkpt lat="50.53001" lon="5.41113">
        <ele>235</ele>
        <time>2016-10-10T13:32:38Z</time>
      </trkpt>
      <trkpt lat="50.53013" lon="5.41119">
        <ele>235</ele>
        <time>2016-10-10T13:34:38Z</time>
      </trkpt>
      <trkpt lat="50.53025" lon="5.41116">
        <ele>234</ele>
        <time>2016-10-10T13:36:38Z</time>
      </trkpt>
      <trkpt lat="50.53069" lon="5.41079">
        <ele>233</ele>
        <time>2016-10-10T13:38:38Z</time>
      </trkpt>
      <trkpt lat="50.53122" lon="5.41055">
        <ele>232</ele>
        <time>2016-10-10T13:40:38Z</time>
      </trkpt>
      <trkpt lat="50.5319" lon="5.41059">
        <ele>231</ele>
        <time>2016-10-10T13:42:38Z</time>
      </trkpt>
      <trkpt lat="50.53254" lon="5.4103">
        <ele>231</ele>
        <time>2016-10-10T13:44:38Z</time>
      </trkpt>
      <trkpt lat="50.53339" lon="5.40968">
        <ele>229</ele>
        <time>2016-10-10T13:46:38Z</time>
      </trkpt>
      <trkpt lat="50.53536" lon="5.40801">
        <ele>224</ele>
        <time>2016-10-10T13:48:38Z</time>
      </trkpt>
      <trkpt lat="50.53675" lon="5.40718">
        <ele>229</ele>
        <time>2016-10-10T13:50:38Z</time>
      </trkpt>
      <trkpt lat="50.53697" lon="5.40717">
        <ele>230</ele>
        <time>2016-10-10T13:52:38Z</time>
      </trkpt>
      <trkpt lat="50.53765" lon="5.40732">
        <ele>234</ele>
        <time>2016-10-10T13:54:38Z</time>
      </trkpt>
      <trkpt lat="50.53826" lon="5.40756">
        <ele>237</ele>
        <time>2016-10-10T13:56:38Z</time>
      </trkpt>
      <trkpt lat="50.53916" lon="5.40789">
        <ele>239</ele>
        <time>2016-10-10T13:58:38Z</time>
      </trkpt>
      <trkpt lat="50.53942" lon="5.40779">
        <ele>238</ele>
        <time>2016-10-10T14:00:38Z</time>
      </trkpt>
      <trkpt lat="50.54005" lon="5.40741">
        <ele>236</ele>
        <time>2016-10-10T14:02:38Z</time>
      </trkpt>
      <trkpt lat="50.54055" lon="5.40737">
        <ele>233</ele>
        <time>2016-10-10T14:04:38Z</time>
      </trkpt>
      <trkpt lat="50.54109" lon="5.40706">
        <ele>230</ele>
        <time>2016-10-10T14:06:38Z</time>
      </trkpt>
      <trkpt lat="50.54119" lon="5.40705">
        <ele>230</ele>
        <time>2016-10-10T14:08:38Z</time>
      </trkpt>
      <trkpt lat="50.54158" lon="5.40718">
        <ele>230</ele>
        <time>2016-10-10T14:10:38Z</time>
      </trkpt>
      <trkpt lat="50.54221" lon="5.40693">
        <ele>230</ele>
        <time>2016-10-10T14:12:38Z</time>
      </trkpt>
      <trkpt lat="50.54236" lon="5.40682">
        <ele>230</ele>
        <time>2016-10-10T14:14:38Z</time>
      </trkpt>
      <trkpt lat="50.54246" lon="5.40667">
        <ele>230</ele>
        <time>2016-10-10T14:16:38Z</time>
      </trkpt>
      <trkpt lat="50.54297" lon="5.40568">
        <ele>230</ele>
        <time>2016-10-10T14:18:38Z</time>
      </trkpt>
      <trkpt lat="50.54321" lon="5.40531">
        <ele>230</ele>
        <time>2016-10-10T14:20:38Z</time>
      </trkpt>
      <trkpt lat="50.54442" lon="5.40401">
        <ele>231</ele>
        <time>2016-10-10T14:22:38Z</time>
      </trkpt>
      <trkpt lat="50.54507" lon="5.40367">
        <ele>232</ele>
        <time>2016-10-10T14:24:38Z</time>
      </trkpt>
      <trkpt lat="50.54597" lon="5.40345">
        <ele>235</ele>
        <time>2016-10-10T14:26:38Z</time>
      </trkpt>
      <trkpt lat="50.54651" lon="5.4041">
        <ele>235</ele>
        <time>2016-10-10T14:28:38Z</time>
      </trkpt>
      <trkpt lat="50.5472" lon="5.40454">
        <ele>234</ele>
        <time>2016-10-10T14:30:38Z</time>
      </trkpt>
      <trkpt lat="50.54756" lon="5.40359">
        <ele>233</ele>
        <time>2016-10-10T14:32:38Z</time>
      </trkpt>
      <trkpt lat="50.54817" lon="5.40186">
        <ele>231</ele>
        <time>2016-10-10T14:34:38Z</time>
      </trkpt>
      <trkpt lat="50.54825" lon="5.40171">
        <ele>231</ele>
        <time>2016-10-10T14:36:38Z</time>
      </trkpt>
      <trkpt lat="50.54838" lon="5.40159">
        <ele>231</ele>
        <time>2016-10-10T14:38:38Z</time>
      </trkpt>
      <trkpt lat="50.54921" lon="5.4011">
        <ele>228</ele>
        <time>2016-10-10T14:40:38Z</time>
      </trkpt>
      <trkpt lat="50.5496" lon="5.40076">
        <ele>226</ele>
        <time>2016-10-10T14:42:38Z</time>
      </trkpt>
      <trkpt lat="50.55039" lon="5.40016">
        <ele>222</ele>
        <time>2016-10-10T14:44:38Z</time>
      </trkpt>
      <trkpt lat="50.55064" lon="5.3999">
        <ele>220</ele>
        <time>2016-10-10T14:46:38Z</time>
      </trkpt>
      <trkpt lat="50.55111" lon="5.39914">
        <ele>217</ele>
        <time>2016-10-10T14:48:38Z</time>
      </trkpt>
      <trkpt lat="50.55135" lon="5.39892">
        <ele>215</ele>
        <time>2016-10-10T14:50:38Z</time>
      </trkpt>
      <trkpt lat="50.55159" lon="5.39893">
        <ele>214</ele>
        <time>2016-10-10T14:52:38Z</time>
      </trkpt>
      <trkpt lat="50.55212" lon="5.39925">
        <ele>214</ele>
        <time>2016-10-10T14:54:38Z</time>
      </trkpt>
      <trkpt lat="50.55248" lon="5.39938">
        <ele>213</ele>
        <time>2016-10-10T14:56:38Z</time>
      </trkpt>
      <trkpt lat="50.55351" lon="5.39906">
        <ele>208</ele>
        <time>2016-10-10T14:58:38Z</time>
      </trkpt>
      <trkpt lat="50.5538" lon="5.39883">
        <ele>207</ele>
        <time>2016-10-10T15:00:38Z</time>
      </trkpt>
      <trkpt lat="50.55392" lon="5.39865">
        <ele>206</ele>
        <time>2016-10-10T15:02:38Z</time>
      </trkpt>
      <trkpt lat="50.5542" lon="5.39796">
        <ele>201</ele>
        <time>2016-10-10T15:04:38Z</time>
      </trkpt>
      <trkpt lat="50.55431" lon="5.39761">
        <ele>199</ele>
        <time>2016-10-10T15:06:38Z</time>
      </trkpt>
      <trkpt lat="50.5545" lon="5.39672">
        <ele>193</ele>
        <time>2016-10-10T15:08:38Z</time>
      </trkpt>
      <trkpt lat="50.55459" lon="5.39657">
        <ele>193</ele>
        <time>2016-10-10T15:10:38Z</time>
      </trkpt>
      <trkpt lat="50.55516" lon="5.39607">
        <ele>191</ele>
        <time>2016-10-10T15:12:38Z</time>
      </trkpt>
      <trkpt lat="50.55657" lon="5.3942">
        <ele>180</ele>
        <time>2016-10-10T15:14:38Z</time>
      </trkpt>
      <trkpt lat="50.55697" lon="5.39384">
        <ele>176</ele>
        <time>2016-10-10T15:16:38Z</time>
      </trkpt>
      <trkpt lat="50.55758" lon="5.39341">
        <ele>170</ele>
        <time>2016-10-10T15:18:38Z</time>
      </trkpt>
      <trkpt lat="50.55789" lon="5.39326">
        <ele>169</ele>
        <time>2016-10-10T15:20:38Z</time>
      </trkpt>
      <trkpt lat="50.55838" lon="5.39329">
        <ele>167</ele>
        <time>2016-10-10T15:22:38Z</time>
      </trkpt>
      <trkpt lat="50.55952" lon="5.39378">
        <ele>166</ele>
        <time>2016-10-10T15:24:38Z</time>
      </trkpt>
      <trkpt lat="50.55976" lon="5.39384">
        <ele>165</ele>
        <time>2016-10-10T15:26:38Z</time>
      </trkpt>
      <trkpt lat="50.56094" lon="5.39366">
        <ele>162</ele>
        <time>2016-10-10T15:28:38Z</time>
      </trkpt>
      <trkpt lat="50.56118" lon="5.39358">
        <ele>159</ele>
        <time>2016-10-10T15:30:38Z</time>
      </trkpt>
      <trkpt lat="50.56189" lon="5.39324">
        <ele>152</ele>
        <time>2016-10-10T15:32:38Z</time>
      </trkpt>
      <trkpt lat="50.5623" lon="5.39296">
        <ele>148</ele>
        <time>2016-10-10T15:34:38Z</time>
      </trkpt>
      <trkpt lat="50.56243" lon="5.3928">
        <ele>146</ele>
        <time>2016-10-10T15:36:38Z</time>
      </trkpt>
      <trkpt lat="50.56271" lon="5.39224">
        <ele>140</ele>
        <time>2016-10-10T15:38:38Z</time>
      </trkpt>
      <trkpt lat="50.56302" lon="5.3918">
        <ele>136</ele>
        <time>2016-10-10T15:40:38Z</time>
      </trkpt>
      <trkpt lat="50.56318" lon="5.39135">
        <ele>136</ele>
        <time>2016-10-10T15:42:38Z</time>
      </trkpt>
      <trkpt lat="50.56393" lon="5.39045">
        <ele>131</ele>
        <time>2016-10-10T15:44:38Z</time>
      </trkpt>
      <trkpt lat="50.56407" lon="5.39042">
        <ele>129</ele>
        <time>2016-10-10T15:46:38Z</time>
      </trkpt>
      <trkpt lat="50.56496" lon="5.39054">
        <ele>113</ele>
        <time>2016-10-10T15:48:38Z</time>
      </trkpt>
      <trkpt lat="50.56527" lon="5.39062">
        <ele>110</ele>
        <time>2016-10-10T15:50:38Z</time>
      </trkpt>
      <trkpt lat="50.5655" lon="5.39076">
        <ele>107</ele>
        <time>2016-10-10T15:52:38Z</time>
      </trkpt>
      <trkpt lat="50.56583" lon="5.39107">
        <ele>102</ele>
        <time>2016-10-10T15:54:38Z</time>
      </trkpt>
      <trkpt lat="50.56602" lon="5.39119">
        <ele>99</ele>
        <time>2016-10-10T15:56:38Z</time>
      </trkpt>
      <trkpt lat="50.56691" lon="5.39143">
        <ele>91</ele>
        <time>2016-10-10T15:58:38Z</time>
      </trkpt>
      <trkpt lat="50.56743" lon="5.39216">
        <ele>89</ele>
        <time>2016-10-10T16:00:38Z</time>
      </trkpt>
      <trkpt lat="50.56785" lon="5.3925">
        <ele>86</ele>
        <time>2016-10-10T16:02:38Z</time>
      </trkpt>
      <trkpt lat="50.56835" lon="5.39265">
        <ele>82</ele>
        <time>2016-10-10T16:04:38Z</time>
      </trkpt>
      <trkpt lat="50.56895" lon="5.39254">
        <ele>78</ele>
        <time>2016-10-10T16:06:38Z</time>
      </trkpt>
      <trkpt lat="50.56924" lon="5.39237">
        <ele>75</ele>
        <time>2016-10-10T16:08:38Z</time>
      </trkpt>
      <trkpt lat="50.56932" lon="5.3922">
        <ele>75</ele>
        <time>2016-10-10T16:10:38Z</time>
      </trkpt>
      <trkpt lat="50.56938" lon="5.39189">
        <ele>74</ele>
        <time>2016-10-10T16:12:38Z</time>
      </trkpt>
      <trkpt lat="50.56916" lon="5.39151">
        <ele>73</ele>
        <time>2016-10-10T16:14:38Z</time>
      </trkpt>
      <trkpt lat="50.56719" lon="5.38922">
        <ele>79</ele>
        <time>2016-10-10T16:16:38Z</time>
      </trkpt>
      <trkpt lat="50.56681" lon="5.38881">
        <ele>79</ele>
        <time>2016-10-10T16:18:38Z</time>
      </trkpt>
      <trkpt lat="50.56634" lon="5.38786">
        <ele>79</ele>
        <time>2016-10-10T16:20:38Z</time>
      </trkpt>
      <trkpt lat="50.56566" lon="5.38626">
        <ele>74</ele>
        <time>2016-10-10T16:22:38Z</time>
      </trkpt>
      <trkpt lat="50.56533" lon="5.38532">
        <ele>74</ele>
        <time>2016-10-10T16:24:38Z</time>
      </trkpt>
      <trkpt lat="50.56603" lon="5.3854">
        <ele>70</ele>
        <time>2016-10-10T16:26:38Z</time>
      </trkpt>
      <trkpt lat="50.56645" lon="5.38552">
        <ele>69</ele>
        <time>2016-10-10T16:28:38Z</time>
      </trkpt>
      <trkpt lat="50.56661" lon="5.38559">
        <ele>69</ele>
        <time>2016-10-10T16:30:38Z</time>
      </trkpt>
      <trkpt lat="50.56674" lon="5.38575">
        <ele>69</ele>
        <time>2016-10-10T16:32:38Z</time>
      </trkpt>
      <trkpt lat="50.56707" lon="5.38617">
        <ele>69</ele>
        <time>2016-10-10T16:34:38Z</time>
      </trkpt>
      <trkpt lat="50.56985" lon="5.39059">
        <ele>68</ele>
        <time>2016-10-10T16:36:38Z</time>
      </trkpt>
      <trkpt lat="50.57044" lon="5.39166">
        <ele>69</ele>
        <time>2016-10-10T16:38:38Z</time>
      </trkpt>
      <trkpt lat="50.57286" lon="5.39699">
        <ele>74</ele>
        <time>2016-10-10T16:40:38Z</time>
      </trkpt>
      <trkpt lat="50.5747" lon="5.4014">
        <ele>74</ele>
        <time>2016-10-10T16:42:38Z</time>
      </trkpt>
      <trkpt lat="50.57554" lon="5.4035">
        <ele>75</ele>
        <time>2016-10-10T16:44:38Z</time>
      </trkpt>
      <trkpt lat="50.57602" lon="5.40452">
        <ele>74</ele>
        <time>2016-10-10T16:46:38Z</time>
      </trkpt>
      <trkpt lat="50.57622" lon="5.40489">
        <ele>74</ele>
        <time>2016-10-10T16:48:38Z</time>
      </trkpt>
      <trkpt lat="50.57763" lon="5.40711">
        <ele>75</ele>
        <time>2016-10-10T16:50:38Z</time>
      </trkpt>
      <trkpt lat="50.57875" lon="5.40851">
        <ele>71</ele>
        <time>2016-10-10T16:52:38Z</time>
      </trkpt>
      <trkpt lat="50.57993" lon="5.40652">
        <ele>71</ele>
        <time>2016-10-10T16:54:38Z</time>
      </trkpt>
      <trkpt lat="50.58119" lon="5.40496">
        <ele>66</ele>
        <time>2016-10-10T16:56:38Z</time>
      </trkpt>
      <trkpt lat="50.58159" lon="5.40454">
        <ele>67</ele>
        <time>2016-10-10T16:58:38Z</time>
      </trkpt>
      <trkpt lat="50.58181" lon="5.40435">
        <ele>68</ele>
        <time>2016-10-10T17:00:38Z</time>
      </trkpt>
      <trkpt lat="50.58191" lon="5.40433">
        <ele>69</ele>
        <time>2016-10-10T17:02:38Z</time>
      </trkpt>
      <trkpt lat="50.58198" lon="5.40439">
        <ele>69</ele>
        <time>2016-10-10T17:04:38Z</time>
      </trkpt>
      <trkpt lat="50.58216" lon="5.40482">
        <ele>68</ele>
        <time>2016-10-10T17:06:38Z</time>
      </trkpt>
      <trkpt lat="50.58213" lon="5.40519">
        <ele>68</ele>
        <time>2016-10-10T17:08:38Z</time>
      </trkpt>
      <trkpt lat="50.58199" lon="5.40562">
        <ele>67</ele>
        <time>2016-10-10T17:10:38Z</time>
      </trkpt>
      <trkpt lat="50.58193" lon="5.4057">
        <ele>67</ele>
        <time>2016-10-10T17:12:38Z</time>
      </trkpt>
      <trkpt lat="50.58173" lon="5.40577">
        <ele>67</ele>
        <time>2016-10-10T17:14:38Z</time>
      </trkpt>
      <trkpt lat="50.58201" lon="5.40656">
        <ele>67</ele>
        <time>2016-10-10T17:16:38Z</time>
      </trkpt>
      <trkpt lat="50.58273" lon="5.40855">
        <ele>68</ele>
        <time>2016-10-10T17:18:38Z</time>
      </trkpt>
      <trkpt lat="50.5831" lon="5.40948">
        <ele>68</ele>
        <time>2016-10-10T17:20:38Z</time>
      </trkpt>
      <trkpt lat="50.58371" lon="5.41085">
        <ele>70</ele>
        <time>2016-10-10T17:22:38Z</time>
      </trkpt>
      <trkpt lat="50.58447" lon="5.41234">
        <ele>70</ele>
        <time>2016-10-10T17:24:38Z</time>
      </trkpt>
      <trkpt lat="50.586" lon="5.41491">
        <ele>68</ele>
        <time>2016-10-10T17:26:38Z</time>
      </trkpt>
      <trkpt lat="50.58612" lon="5.41539">
        <ele>68</ele>
        <time>2016-10-10T17:28:38Z</time>
      </trkpt>
      <trkpt lat="50.58612" lon="5.41575">
        <ele>67</ele>
        <time>2016-10-10T17:30:38Z</time>
      </trkpt>
      <trkpt lat="50.58653" lon="5.41564">
        <ele>68</ele>
        <time>2016-10-10T17:32:38Z</time>
      </trkpt>
      <trkpt lat="50.58717" lon="5.4153">
        <ele>71</ele>
        <time>2016-10-10T17:34:38Z</time>
      </trkpt>
      <trkpt lat="50.58825" lon="5.41391">
        <ele>73</ele>
        <time>2016-10-10T17:36:38Z</time>
      </trkpt>
      <trkpt lat="50.58876" lon="5.41346">
        <ele>73</ele>
        <time>2016-10-10T17:38:38Z</time>
      </trkpt>
      <trkpt lat="50.58896" lon="5.41314">
        <ele>72</ele>
        <time>2016-10-10T17:40:38Z</time>
      </trkpt>
      <trkpt lat="50.58971" lon="5.41119">
        <ele>80</ele>
        <time>2016-10-10T17:42:38Z</time>
      </trkpt>
      <trkpt lat="50.58988" lon="5.41095">
        <ele>81</ele>
        <time>2016-10-10T17:44:38Z</time>
      </trkpt>
      <trkpt lat="50.59009" lon="5.41081">
        <ele>82</ele>
        <time>2016-10-10T17:46:38Z</time>
      </trkpt>
      <trkpt lat="50.59031" lon="5.4108">
        <ele>83</ele>
        <time>2016-10-10T17:48:38Z</time>
      </trkpt>
      <trkpt lat="50.59188" lon="5.41143">
        <ele>88</ele>
        <time>2016-10-10T17:50:38Z</time>
      </trkpt>
      <trkpt lat="50.59212" lon="5.41148">
        <ele>89</ele>
        <time>2016-10-10T17:52:38Z</time>
      </trkpt>
      <trkpt lat="50.59323" lon="5.41112">
        <ele>93</ele>
        <time>2016-10-10T17:54:38Z</time>
      </trkpt>
      <trkpt lat="50.59492" lon="5.41077">
        <ele>88</ele>
        <time>2016-10-10T17:56:38Z</time>
      </trkpt>
      <trkpt lat="50.59536" lon="5.4108">
        <ele>88</ele>
        <time>2016-10-10T17:58:38Z</time>
      </trkpt>
      <trkpt lat="50.59658" lon="5.4111">
        <ele>87</ele>
        <time>2016-10-10T18:00:38Z</time>
      </trkpt>
      <trkpt lat="50.59779" lon="5.41108">
        <ele>90</ele>
        <time>2016-10-10T18:02:38Z</time>
      </trkpt>
      <trkpt lat="50.59817" lon="5.41083">
        <ele>90</ele>
        <time>2016-10-10T18:04:38Z</time>
      </trkpt>
      <trkpt lat="50.59848" lon="5.41048">
        <ele>90</ele>
        <time>2016-10-10T18:06:38Z</time>
      </trkpt>
      <trkpt lat="50.59869" lon="5.4101">
        <ele>89</ele>
        <time>2016-10-10T18:08:38Z</time>
      </trkpt>
      <trkpt lat="50.60002" lon="5.40566">
        <ele>90</ele>
        <time>2016-10-10T18:10:38Z</time>
      </trkpt>
      <trkpt lat="50.60017" lon="5.40538">
        <ele>91</ele>
        <time>2016-10-10T18:12:38Z</time>
      </trkpt>
      <trkpt lat="50.60031" lon="5.40525">
        <ele>91</ele>
        <time>2016-10-10T18:14:38Z</time>
      </trkpt>
      <trkpt lat="50.6021" lon="5.40427">
        <ele>97</ele>
        <time>2016-10-10T18:16:38Z</time>
      </trkpt>
      <trkpt lat="50.60341" lon="5.40363">
        <ele>99</ele>
        <time>2016-10-10T18:18:38Z</time>
      </trkpt>
      <trkpt lat="50.6046" lon="5.40288">
        <ele>97</ele>
        <time>2016-10-10T18:20:38Z</time>
      </trkpt>
      <trkpt lat="50.60475" lon="5.40276">
        <ele>97</ele>
        <time>2016-10-10T18:22:38Z</time>
      </trkpt>
      <trkpt lat="50.60579" lon="5.40158">
        <ele>99</ele>
        <time>2016-10-10T18:24:38Z</time>
      </trkpt>
      <trkpt lat="50.60624" lon="5.40101">
        <ele>100</ele>
        <time>2016-10-10T18:26:38Z</time>
      </trkpt>
      <trkpt lat="50.6064" lon="5.40074">
        <ele>100</ele>
        <time>2016-10-10T18:28:38Z</time>
      </trkpt>
      <trkpt lat="50.6066" lon="5.40025">
        <ele>99</ele>
        <time>2016-10-10T18:30:38Z</time>
      </trkpt>
      <trkpt lat="50.60738" lon="5.39806">
        <ele>105</ele>
        <time>2016-10-10T18:32:38Z</time>
      </trkpt>
      <trkpt lat="50.60771" lon="5.39709">
        <ele>109</ele>
        <time>2016-10-10T18:34:38Z</time>
      </trkpt>
      <trkpt lat="50.60858" lon="5.3942">
        <ele>114</ele>
        <time>2016-10-10T18:36:38Z</time>
      </trkpt>
      <trkpt lat="50.60893" lon="5.39353">
        <ele>112</ele>
        <time>2016-10-10T18:38:38Z</time>
      </trkpt>
      <trkpt lat="50.60953" lon="5.39272">
        <ele>113</ele>
        <time>2016-10-10T18:40:38Z</time>
      </trkpt>
      <trkpt lat="50.60979" lon="5.39245">
        <ele>114</ele>
        <time>2016-10-10T18:42:38Z</time>
      </trkpt>
      <trkpt lat="50.61014" lon="5.39225">
        <ele>113</ele>
        <time>2016-10-10T18:44:38Z</time>
      </trkpt>
      <trkpt lat="50.61046" lon="5.39216">
        <ele>114</ele>
        <time>2016-10-10T18:46:38Z</time>
      </trkpt>
      <trkpt lat="50.61165" lon="5.39199">
        <ele>114</ele>
        <time>2016-10-10T18:48:38Z</time>
      </trkpt>
      <trkpt lat="50.61206" lon="5.39183">
        <ele>112</ele>
        <time>2016-10-10T18:50:38Z</time>
      </trkpt>
      <trkpt lat="50.61234" lon="5.39164">
        <ele>110</ele>
        <time>2016-10-10T18:52:38Z</time>
      </trkpt>
      <trkpt lat="50.6125" lon="5.39147">
        <ele>110</ele>
        <time>2016-10-10T18:54:38Z</time>
      </trkpt>
      <trkpt lat="50.61392" lon="5.38973">
        <ele>118</ele>
        <time>2016-10-10T18:56:38Z</time>
      </trkpt>
      <trkpt lat="50.61422" lon="5.38946">
        <ele>120</ele>
        <time>2016-10-10T18:58:38Z</time>
      </trkpt>
      <trkpt lat="50.61464" lon="5.38925">
        <ele>122</ele>
        <time>2016-10-10T19:00:38Z</time>
      </trkpt>
      <trkpt lat="50.61512" lon="5.38935">
        <ele>126</ele>
        <time>2016-10-10T19:02:38Z</time>
      </trkpt>
      <trkpt lat="50.61571" lon="5.38993">
        <ele>125</ele>
        <time>2016-10-10T19:04:38Z</time>
      </trkpt>
      <trkpt lat="50.61621" lon="5.39021">
        <ele>124</ele>
        <time>2016-10-10T19:06:38Z</time>
      </trkpt>
      <trkpt lat="50.61704" lon="5.39087">
        <ele>129</ele>
        <time>2016-10-10T19:08:38Z</time>
      </trkpt>
      <trkpt lat="50.61747" lon="5.39143">
        <ele>129</ele>
        <time>2016-10-10T19:10:38Z</time>
      </trkpt>
      <trkpt lat="50.61876" lon="5.39337">
        <ele>135</ele>
        <time>2016-10-10T19:12:38Z</time>
      </trkpt>
      <trkpt lat="50.61914" lon="5.39387">
        <ele>135</ele>
        <time>2016-10-10T19:14:38Z</time>
      </trkpt>
      <trkpt lat="50.62096" lon="5.39562">
        <ele>138</ele>
        <time>2016-10-10T19:16:38Z</time>
      </trkpt>
      <trkpt lat="50.6215" lon="5.39606">
        <ele>139</ele>
        <time>2016-10-10T19:18:38Z</time>
      </trkpt>
      <trkpt lat="50.62172" lon="5.39614">
        <ele>138</ele>
        <time>2016-10-10T19:20:38Z</time>
      </trkpt>
      <trkpt lat="50.62488" lon="5.39606">
        <ele>143</ele>
        <time>2016-10-10T19:22:38Z</time>
      </trkpt>
      <trkpt lat="50.62653" lon="5.39599">
        <ele>148</ele>
        <time>2016-10-10T19:24:38Z</time>
      </trkpt>
      <trkpt lat="50.63131" lon="5.39421">
        <ele>168</ele>
        <time>2016-10-10T19:26:38Z</time>
      </trkpt>
      <trkpt lat="50.63256" lon="5.39378">
        <ele>169</ele>
        <time>2016-10-10T19:28:38Z</time>
      </trkpt>
      <trkpt lat="50.63298" lon="5.3937">
        <ele>166</ele>
        <time>2016-10-10T19:30:38Z</time>
      </trkpt>
      <trkpt lat="50.63332" lon="5.39379">
        <ele>164</ele>
        <time>2016-10-10T19:32:38Z</time>
      </trkpt>
      <trkpt lat="50.63358" lon="5.39396">
        <ele>163</ele>
        <time>2016-10-10T19:34:38Z</time>
      </trkpt>
      <trkpt lat="50.63386" lon="5.39422">
        <ele>162</ele>
        <time>2016-10-10T19:36:38Z</time>
      </trkpt>
      <trkpt lat="50.63417" lon="5.39465">
        <ele>162</ele>
        <time>2016-10-10T19:38:38Z</time>
      </trkpt>
      <trkpt lat="50.63458" lon="5.39551">
        <ele>164</ele>
        <time>2016-10-10T19:40:38Z</time>
      </trkpt>
      <trkpt lat="50.63502" lon="5.39604">
        <ele>166</ele>
        <time>2016-10-10T19:42:38Z</time>
      </trkpt>
      <trkpt lat="50.63508" lon="5.3961">
        <ele>166</ele>
        <time>2016-10-10T19:44:38Z</time>
      </trkpt>
      <trkpt lat="50.63509" lon="5.39626">
        <ele>166</ele>
        <time>2016-10-10T19:46:38Z</time>
      </trkpt>
      <trkpt lat="50.6348" lon="5.39667">
        <ele>167</ele>
        <time>2016-10-10T19:48:38Z</time>
      </trkpt>
      <trkpt lat="50.62767" lon="5.4059">
        <ele>157</ele>
        <time>2016-10-10T19:50:38Z</time>
      </trkpt>
      <trkpt lat="50.6285" lon="5.40811">
        <ele>155</ele>
        <time>2016-10-10T19:52:38Z</time>
      </trkpt>
      <trkpt lat="50.62952" lon="5.4115">
        <ele>158</ele>
        <time>2016-10-10T19:54:38Z</time>
      </trkpt>
      <trkpt lat="50.63028" lon="5.41419">
        <ele>164</ele>
        <time>2016-10-10T19:56:38Z</time>
      </trkpt>
      <trkpt lat="50.62878" lon="5.41502">
        <ele>166</ele>
        <time>2016-10-10T19:58:38Z</time>
      </trkpt>
      <trkpt lat="50.62702" lon="5.4144">
        <ele>165</ele>
        <time>2016-10-10T20:00:38Z</time>
      </trkpt>
      <trkpt lat="50.62685" lon="5.41437">
        <ele>165</ele>
        <time>2016-10-10T20:02:38Z</time>
      </trkpt>
      <trkpt lat="50.62671" lon="5.41441">
        <ele>165</ele>
        <time>2016-10-10T20:04:38Z</time>
      </trkpt>
      <trkpt lat="50.62637" lon="5.41457">
        <ele>167</ele>
        <time>2016-10-10T20:06:38Z</time>
      </trkpt>
      <trkpt lat="50.62627" lon="5.41468">
        <ele>167</ele>
        <time>2016-10-10T20:08:38Z</time>
      </trkpt>
      <trkpt lat="50.62573" lon="5.41553">
        <ele>169</ele>
        <time>2016-10-10T20:10:38Z</time>
      </trkpt>
      <trkpt lat="50.62662" lon="5.41815">
        <ele>174</ele>
        <time>2016-10-10T20:12:38Z</time>
      </trkpt>
      <trkpt lat="50.62671" lon="5.41903">
        <ele>175</ele>
        <time>2016-10-10T20:14:38Z</time>
      </trkpt>
      <trkpt lat="50.62668" lon="5.41925">
        <ele>175</ele>
        <time>2016-10-10T20:16:38Z</time>
      </trkpt>
      <trkpt lat="50.62669" lon="5.41942">
        <ele>175</ele>
        <time>2016-10-10T20:18:38Z</time>
      </trkpt>
      <trkpt lat="50.62637" lon="5.41969">
        <ele>176</ele>
        <time>2016-10-10T20:20:38Z</time>
      </trkpt>
      <trkpt lat="50.62535" lon="5.42098">
        <ele>180</ele>
        <time>2016-10-10T20:22:38Z</time>
      </trkpt>
      <trkpt lat="50.62496" lon="5.42128">
        <ele>180</ele>
        <time>2016-10-10T20:24:38Z</time>
      </trkpt>
      <trkpt lat="50.62459" lon="5.42144">
        <ele>179</ele>
        <time>2016-10-10T20:26:38Z</time>
      </trkpt>
      <trkpt lat="50.62437" lon="5.42165">
        <ele>179</ele>
        <time>2016-10-10T20:28:38Z</time>
      </trkpt>
      <trkpt lat="50.62423" lon="5.42195">
        <ele>179</ele>
        <time>2016-10-10T20:30:38Z</time>
      </trkpt>
      <trkpt lat="50.62384" lon="5.42329">
        <ele>181</ele>
        <time>2016-10-10T20:32:38Z</time>
      </trkpt>
      <trkpt lat="50.62368" lon="5.42355">
        <ele>182</ele>
        <time>2016-10-10T20:34:38Z</time>
      </trkpt>
      <trkpt lat="50.6236" lon="5.42356">
        <ele>182</ele>
        <time>2016-10-10T20:36:38Z</time>
      </trkpt>
      <trkpt lat="50.62353" lon="5.4237">
        <ele>182</ele>
        <time>2016-10-10T20:38:38Z</time>
      </trkpt>
      <trkpt lat="50.62352" lon="5.42389">
        <ele>182</ele>
        <time>2016-10-10T20:40:38Z</time>
      </trkpt>
      <trkpt lat="50.62355" lon="5.42397">
        <ele>183</ele>
        <time>2016-10-10T20:42:38Z</time>
      </trkpt>
      <trkpt lat="50.62349" lon="5.42429">
        <ele>183</ele>
        <time>2016-10-10T20:44:38Z</time>
      </trkpt>
      <trkpt lat="50.62318" lon="5.42494">
        <ele>186</ele>
        <time>2016-10-10T20:46:38Z</time>
      </trkpt>
      <trkpt lat="50.62307" lon="5.42498">
        <ele>186</ele>
        <time>2016-10-10T20:48:38Z</time>
      </trkpt>
      <trkpt lat="50.6229" lon="5.42496">
        <ele>185</ele>
        <time>2016-10-10T20:50:38Z</time>
      </trkpt>
      <trkpt lat="50.62284" lon="5.42506">
        <ele>186</ele>
        <time>2016-10-10T20:52:38Z</time>
      </trkpt>
      <trkpt lat="50.62281" lon="5.42525">
        <ele>186</ele>
        <time>2016-10-10T20:54:38Z</time>
      </trkpt>
      <trkpt lat="50.62265" lon="5.4255">
        <ele>187</ele>
        <time>2016-10-10T20:56:38Z</time>
      </trkpt>
      <trkpt lat="50.62254" lon="5.42555">
        <ele>187</ele>
        <time>2016-10-10T20:58:38Z</time>
      </trkpt>
      <trkpt lat="50.62223" lon="5.42548">
        <ele>187</ele>
        <time>2016-10-10T21:00:38Z</time>
      </trkpt>
      <trkpt lat="50.62208" lon="5.42553">
        <ele>188</ele>
        <time>2016-10-10T21:02:38Z</time>
      </trkpt>
      <trkpt lat="50.62197" lon="5.42569">
        <ele>188</ele>
        <time>2016-10-10T21:04:38Z</time>
      </trkpt>
      <trkpt lat="50.62173" lon="5.42623">
        <ele>189</ele>
        <time>2016-10-10T21:06:38Z</time>
      </trkpt>
      <trkpt lat="50.62154" lon="5.42634">
        <ele>190</ele>
        <time>2016-10-10T21:08:38Z</time>
      </trkpt>
      <trkpt lat="50.62001" lon="5.42597">
        <ele>193</ele>
        <time>2016-10-10T21:10:38Z</time>
      </trkpt>
      <trkpt lat="50.6195" lon="5.42597">
        <ele>193</ele>
        <time>2016-10-10T21:12:38Z</time>
      </trkpt>
      <trkpt lat="50.61881" lon="5.42605">
        <ele>191</ele>
        <time>2016-10-10T21:14:38Z</time>
      </trkpt>
      <trkpt lat="50.61808" lon="5.42585">
        <ele>189</ele>
        <time>2016-10-10T21:16:38Z</time>
      </trkpt>
      <trkpt lat="50.61817" lon="5.42634">
        <ele>188</ele>
        <time>2016-10-10T21:18:38Z</time>
      </trkpt>
      <trkpt lat="50.61813" lon="5.42684">
        <ele>187</ele>
        <time>2016-10-10T21:20:38Z</time>
      </trkpt>
      <trkpt lat="50.61796" lon="5.42771">
        <ele>187</ele>
        <time>2016-10-10T21:22:38Z</time>
      </trkpt>
      <trkpt lat="50.61768" lon="5.42841">
        <ele>185</ele>
        <time>2016-10-10T21:24:38Z</time>
      </trkpt>
      <trkpt lat="50.61767" lon="5.4287">
        <ele>185</ele>
        <time>2016-10-10T21:26:38Z</time>
      </trkpt>
      <trkpt lat="50.61769" lon="5.42874">
        <ele>185</ele>
        <time>2016-10-10T21:28:38Z</time>
      </trkpt>
      <trkpt lat="50.61778" lon="5.42894">
        <ele>186</ele>
        <time>2016-10-10T21:30:38Z</time>
      </trkpt>
      <trkpt lat="50.61848" lon="5.42972">
        <ele>190</ele>
        <time>2016-10-10T21:32:38Z</time>
      </trkpt>
      <trkpt lat="50.61967" lon="5.43138">
        <ele>189</ele>
        <time>2016-10-10T21:34:38Z</time>
      </trkpt>
      <trkpt lat="50.61983" lon="5.43153">
        <ele>190</ele>
        <time>2016-10-10T21:36:38Z</time>
      </trkpt>
      <trkpt lat="50.62039" lon="5.43186">
        <ele>190</ele>
        <time>2016-10-10T21:38:38Z</time>
      </trkpt>
      <trkpt lat="50.62146" lon="5.43301">
        <ele>192</ele>
        <time>2016-10-10T21:40:38Z</time>
      </trkpt>
      <trkpt lat="50.62156" lon="5.43321">
        <ele>192</ele>
        <time>2016-10-10T21:42:38Z</time>
      </trkpt>
      <trkpt lat="50.62202" lon="5.43449">
        <ele>190</ele>
        <time>2016-10-10T21:44:38Z</time>
      </trkpt>
      <trkpt lat="50.62207" lon="5.43473">
        <ele>189</ele>
        <time>2016-10-10T21:46:38Z</time>
      </trkpt>
      <trkpt lat="50.62204" lon="5.4349">
        <ele>188</ele>
        <time>2016-10-10T21:48:38Z</time>
      </trkpt>
      <trkpt lat="50.62208" lon="5.43505">
        <ele>188</ele>
        <time>2016-10-10T21:50:38Z</time>
      </trkpt>
      <trkpt lat="50.62229" lon="5.43519">
        <ele>188</ele>
        <time>2016-10-10T21:52:38Z</time>
      </trkpt>
      <trkpt lat="50.62236" lon="5.43527">
        <ele>188</ele>
        <time>2016-10-10T21:54:38Z</time>
      </trkpt>
      <trkpt lat="50.62328" lon="5.43771">
        <ele>184</ele>
        <time>2016-10-10T21:56:38Z</time>
      </trkpt>
      <trkpt lat="50.62351" lon="5.43868">
        <ele>183</ele>
        <time>2016-10-10T21:58:38Z</time>
      </trkpt>
      <trkpt lat="50.62372" lon="5.43981">
        <ele>185</ele>
        <time>2016-10-10T22:00:38Z</time>
      </trkpt>
      <trkpt lat="50.6237" lon="5.44002">
        <ele>185</ele>
        <time>2016-10-10T22:02:38Z</time>
      </trkpt>
      <trkpt lat="50.62358" lon="5.4403">
        <ele>185</ele>
        <time>2016-10-10T22:04:38Z</time>
      </trkpt>
      <trkpt lat="50.62306" lon="5.44129">
        <ele>185</ele>
        <time>2016-10-10T22:06:38Z</time>
      </trkpt>
      <trkpt lat="50.623" lon="5.44189">
        <ele>186</ele>
        <time>2016-10-10T22:08:38Z</time>
      </trkpt>
      <trkpt lat="50.62306" lon="5.44192">
        <ele>186</ele>
        <time>2016-10-10T22:10:38Z</time>
      </trkpt>
      <trkpt lat="50.62315" lon="5.44223">
        <ele>186</ele>
        <time>2016-10-10T22:12:38Z</time>
      </trkpt>
      <trkpt lat="50.62342" lon="5.44356">
        <ele>186</ele>
        <time>2016-10-10T22:14:38Z</time>
      </trkpt>
      <trkpt lat="50.6235" lon="5.44426">
        <ele>187</ele>
        <time>2016-10-10T22:16:38Z</time>
      </trkpt>
      <trkpt lat="50.62356" lon="5.44528">
        <ele>187</ele>
        <time>2016-10-10T22:18:38Z</time>
      </trkpt>
      <trkpt lat="50.62355" lon="5.44609">
        <ele>188</ele>
        <time>2016-10-10T22:20:38Z</time>
      </trkpt>
      <trkpt lat="50.6233" lon="5.44835">
        <ele>188</ele>
        <time>2016-10-10T22:22:38Z</time>
      </trkpt>
      <trkpt lat="50.62321" lon="5.4495">
        <ele>188</ele>
        <time>2016-10-10T22:24:38Z</time>
      </trkpt>
      <trkpt lat="50.6232" lon="5.45027">
        <ele>187</ele>
        <time>2016-10-10T22:26:38Z</time>
      </trkpt>
      <trkpt lat="50.62336" lon="5.45563">
        <ele>185</ele>
        <time>2016-10-10T22:28:38Z</time>
      </trkpt>
      <trkpt lat="50.62333" lon="5.45584">
        <ele>185</ele>
        <time>2016-10-10T22:30:38Z</time>
      </trkpt>
      <trkpt lat="50.62338" lon="5.45592">
        <ele>185</ele>
        <time>2016-10-10T22:32:38Z</time>
      </trkpt>
      <trkpt lat="50.6233" lon="5.45606">
        <ele>184</ele>
        <time>2016-10-10T22:34:38Z</time>
      </trkpt>
      <trkpt lat="50.62322" lon="5.45634">
        <ele>184</ele>
        <time>2016-10-10T22:36:38Z</time>
      </trkpt>
      <trkpt lat="50.62272" lon="5.45849">
        <ele>182</ele>
        <time>2016-10-10T22:38:38Z</time>
      </trkpt>
      <trkpt lat="50.62236" lon="5.45983">
        <ele>182</ele>
        <time>2016-10-10T22:40:38Z</time>
      </trkpt>
    </trkseg>
  </trk>
</gpx>